Darstellungsparameter: Aktuell verwendete Einstellungen:
Skalierung der Graphiken ... ?
xyx+y,   Skalierungsfaktor:      Skalierung: Modus: x, Faktor: 1
Darstellungszeitraum ... ?
Vom - - bis: - -   Zeitraum: 13.02.2011 - 26.02.2011
Min/Max/Avg-Anzeige ... ?
Zeige MMA aktuell
Zeige MMA Monat
Zeige MMA alles
Zeige --A aktuell
Zeige --A Monat
Zeige --A alles
Keine MMA-Anzeige
MMA:
Average (ber die Originaldaten)
MMA-Basis: 13.02.2011 - 26.02.2011
Quicknavigation für Darstellung... ?
Tage:      1T, 2T, 3T, 5T -1T -2T -3T -5T +1T +2T +3T +5T
Wochen: 1W, 2W, 3W -1W -2W -3W +1W +2W +3W
Monate: 1M, 3M, 6M -1M -3M -6M +1M +3M +6M
Jahre:    1J, 3J, 5J, 10J -1J -3J -5J -10J +1J +3J +5J +10J
Nutze für die Darstellung ... ?
Originaldaten oder Mittelwerte auf ...
Stundenbasis Tagesbasis Wochenbasis
Monatsbasis Jahresbasis      Datenbasis: Original-Daten
Darstellen als:
Statistik (Auto) Statistik J:M      Darstellung:
Zur Graphik,    zurück zur Übersicht aller Sensoren.
 
Tabellarische Datenbersicht: ?
 
Sensor: Nr:Datum:Temp:Abs-Feuchte:Windchill:Wind:
Aussen-T/F 1 13-02-2011 00:09:03 5.3 C 6.24 g/m*3 5.3 C 0 km/h
2 13-02-2011 00:21:03 5.3 C 6.24 g/m*3 5.3 C 0 km/h
3 13-02-2011 00:33:04 5.3 C 6.17 g/m*3 5.3 C 0 km/h
4 13-02-2011 00:45:04 5.2 C 6.13 g/m*3 5.2 C 0 km/h
5 13-02-2011 00:57:04 5.1 C 6.09 g/m*3 5.1 C 0 km/h
6 13-02-2011 01:09:04 5 C 6.05 g/m*3 5 C 0 km/h
7 13-02-2011 01:21:04 5.1 C 6.09 g/m*3 5.1 C 0 km/h
8 13-02-2011 01:33:04 5.1 C 6.16 g/m*3 5.1 C 0 km/h
9 13-02-2011 01:45:04 5.1 C 6.16 g/m*3 5.1 C 0 km/h
10 13-02-2011 01:57:04 5 C 6.12 g/m*3 5 C 0 km/h
11 13-02-2011 02:09:04 4.9 C 6.14 g/m*3 4.9 C 0 km/h
12 13-02-2011 02:21:04 4.8 C 6.1 g/m*3 4.8 C 0 km/h
13 13-02-2011 02:33:04 4.7 C 6.06 g/m*3 4.7 C 0 km/h
14 13-02-2011 02:45:04 4.7 C 6.06 g/m*3 4.7 C 0 km/h
15 13-02-2011 02:57:04 4.6 C 6.02 g/m*3 4.6 C 0 km/h
16 13-02-2011 03:09:04 4.7 C 6.06 g/m*3 4.7 C 0 km/h
17 13-02-2011 03:21:04 4.9 C 6.14 g/m*3 4.9 C 0 km/h
18 13-02-2011 03:33:04 4.9 C 6.14 g/m*3 4.9 C 0 km/h
19 13-02-2011 03:45:04 5 C 6.18 g/m*3 5 C 0 km/h
20 13-02-2011 03:57:04 5.1 C 6.22 g/m*3 5.1 C 0 km/h
21 13-02-2011 04:09:04 5 C 6.18 g/m*3 5 C 0 km/h
22 13-02-2011 04:21:04 5 C 6.18 g/m*3 5 C 0 km/h
23 13-02-2011 04:33:05 5 C 6.18 g/m*3 5 C 0 km/h
24 13-02-2011 04:45:05 4.8 C 6.17 g/m*3 4.8 C 0 km/h
25 13-02-2011 04:57:05 4.8 C 6.17 g/m*3 4.8 C 0 km/h
Sensor: Nr:Datum:Temp:Abs-Feuchte:Windchill:Wind:
Aussen-T/F 26 13-02-2011 05:09:05 4.6 C 6.09 g/m*3 4.6 C 0 km/h
27 13-02-2011 05:21:05 4.4 C 6.01 g/m*3 4.4 C 0 km/h
28 13-02-2011 05:33:05 3.9 C 5.81 g/m*3 3.9 C 0 km/h
29 13-02-2011 05:45:05 4.1 C 5.89 g/m*3 4.1 C 0 km/h
30 13-02-2011 05:57:05 4.2 C 5.93 g/m*3 4.2 C 0 km/h
31 13-02-2011 06:09:05 4.2 C 5.93 g/m*3 4.2 C 0 km/h
32 13-02-2011 06:21:05 4 C 5.85 g/m*3 4 C 0 km/h
33 13-02-2011 06:33:05 4 C 5.85 g/m*3 4 C 0 km/h
34 13-02-2011 06:45:05 3.8 C 5.77 g/m*3 3.8 C 0 km/h
35 13-02-2011 06:57:05 3.4 C 5.62 g/m*3 3.4 C 0 km/h
36 13-02-2011 07:09:05 3.2 C 5.54 g/m*3 3.2 C 0 km/h
37 13-02-2011 07:21:05 3 C 5.47 g/m*3 3 C 0 km/h
38 13-02-2011 07:33:05 2.8 C 5.46 g/m*3 2.8 C 0 km/h
39 13-02-2011 07:45:05 2.3 C 5.22 g/m*3 2.3 C 0 km/h
40 13-02-2011 07:57:05 2 C 5.11 g/m*3 2 C 0 km/h
41 13-02-2011 08:09:05 2.2 C 5.18 g/m*3 2.2 C 0 km/h
42 13-02-2011 08:21:05 2.1 C 5.15 g/m*3 2.1 C 0 km/h
43 13-02-2011 08:33:05 1.5 C 4.99 g/m*3 1.5 C 0 km/h
44 13-02-2011 08:45:06 1.4 C 4.96 g/m*3 1.4 C 0 km/h
45 13-02-2011 08:57:06 1.5 C 4.99 g/m*3 1.5 C 0 km/h
46 13-02-2011 09:09:03 1.8 C 5.1 g/m*3 1.8 C 0 km/h
47 13-02-2011 09:21:03 1.9 C 5.13 g/m*3 1.9 C 0 km/h
48 13-02-2011 09:33:03 2.4 C 5.25 g/m*3 2.4 C 0 km/h
49 13-02-2011 09:45:02 3.7 C 5.73 g/m*3 3.7 C 0 km/h
50 13-02-2011 09:57:02 4 C 5.85 g/m*3 4 C 0 km/h
Sensor: Nr:Datum:Temp:Abs-Feuchte:Windchill:Wind:
Aussen-T/F 51 13-02-2011 10:09:02 4.2 C 5.93 g/m*3 4.2 C 0 km/h
52 13-02-2011 10:21:01 4.3 C 5.9 g/m*3 4.3 C 0 km/h
53 13-02-2011 10:33:02 4.8 C 6.04 g/m*3 4.8 C 0 km/h
54 13-02-2011 10:45:01 5.1 C 6.02 g/m*3 5.1 C 0 km/h
55 13-02-2011 10:57:01 5.3 C 5.96 g/m*3 5.3 C 0 km/h
56 13-02-2011 11:09:02 5.4 C 5.86 g/m*3 5.4 C 0 km/h
57 13-02-2011 11:21:02 6.1 C 5.99 g/m*3 6.1 C 0 km/h
58 13-02-2011 11:33:02 6 C 5.66 g/m*3 6 C 0 km/h
59 13-02-2011 11:45:02 6.3 C 5.63 g/m*3 6.3 C 0 km/h
60 13-02-2011 11:57:02 6.9 C 5.77 g/m*3 6.9 C 0 km/h
61 13-02-2011 12:09:02 7.2 C 5.57 g/m*3 7.2 C 0 km/h
62 13-02-2011 12:21:02 7.6 C 5.64 g/m*3 7.6 C 0 km/h
63 13-02-2011 12:33:01 7.5 C 5.68 g/m*3 7.5 C 0 km/h
64 13-02-2011 12:45:02 7.7 C 5.76 g/m*3 7.7 C 0 km/h
65 13-02-2011 12:57:02 7.8 C 5.55 g/m*3 7.8 C 0 km/h
66 13-02-2011 13:09:01 7.2 C 5.26 g/m*3 7.2 C 0 km/h
67 13-02-2011 13:21:01 7.4 C 5.33 g/m*3 7.4 C 0 km/h
68 13-02-2011 13:33:02 7.5 C 5.04 g/m*3 7.5 C 0 km/h
69 13-02-2011 13:45:02 7.9 C 5.01 g/m*3 7.9 C 0 km/h
70 13-02-2011 13:57:03 7.8 C 4.98 g/m*3 7.8 C 0 km/h
71 13-02-2011 14:09:01 8.6 C 5.24 g/m*3 8.6 C 0 km/h
72 13-02-2011 14:21:02 8.6 C 5.16 g/m*3 8.6 C 0 km/h
73 13-02-2011 14:33:02 9.4 C 5.25 g/m*3 9.4 C 0 km/h
74 13-02-2011 14:45:02 8.8 C 5.05 g/m*3 8.8 C 0 km/h
75 13-02-2011 14:57:02 8.5 C 4.87 g/m*3 8.5 C 0 km/h
Sensor: Nr:Datum:Temp:Abs-Feuchte:Windchill:Wind:
Aussen-T/F 76 13-02-2011 15:09:02 8.4 C 4.84 g/m*3 8.4 C 0 km/h
77 13-02-2011 15:21:02 8.5 C 4.95 g/m*3 8.5 C 0 km/h
78 13-02-2011 15:33:02 8.9 C 4.91 g/m*3 8.9 C 0 km/h
79 13-02-2011 15:45:02 9.5 C 5.01 g/m*3 9.5 C 0 km/h
80 13-02-2011 15:57:02 9.2 C 4.91 g/m*3 9.2 C 0 km/h
81 13-02-2011 16:09:02 9.1 C 4.97 g/m*3 9.1 C 0 km/h
82 13-02-2011 16:21:02 8.5 C 4.78 g/m*3 8.5 C 0 km/h
83 13-02-2011 16:33:02 8.2 C 5.02 g/m*3 8.2 C 0 km/h
84 13-02-2011 16:45:02 7.7 C 5.27 g/m*3 7.7 C 0 km/h
85 13-02-2011 16:57:02 7.3 C 5.06 g/m*3 7.3 C 0 km/h
86 13-02-2011 17:09:02 6.9 C 5.39 g/m*3 6.9 C 0 km/h
87 13-02-2011 17:21:02 6.2 C 5.44 g/m*3 6.2 C 0 km/h
88 13-02-2011 17:33:02 5.9 C 5.55 g/m*3 5.9 C 0 km/h
89 13-02-2011 17:45:02 5.6 C 5.51 g/m*3 5.6 C 0 km/h
90 13-02-2011 17:57:02 5.2 C 5.44 g/m*3 5.2 C 0 km/h
91 13-02-2011 18:09:02 4.8 C 5.43 g/m*3 4.8 C 0 km/h
92 13-02-2011 18:21:02 4.6 C 5.43 g/m*3 4.6 C 0 km/h
93 13-02-2011 18:33:01 4.3 C 5.38 g/m*3 4.3 C 0 km/h
94 13-02-2011 18:45:02 4.3 C 5.45 g/m*3 4.3 C 0 km/h
95 13-02-2011 18:57:02 4.4 C 5.48 g/m*3 4.4 C 0 km/h
96 13-02-2011 19:09:01 4.3 C 5.51 g/m*3 4.3 C 0 km/h
97 13-02-2011 19:21:01 4.4 C 5.55 g/m*3 4.4 C 0 km/h
98 13-02-2011 19:33:02 4.5 C 5.65 g/m*3 4.5 C 0 km/h
99 13-02-2011 19:45:01 4.3 C 5.51 g/m*3 4.3 C 0 km/h
100 13-02-2011 19:57:01 4.3 C 5.51 g/m*3 4.3 C 0 km/h
Sensor: Nr:Datum:Temp:Abs-Feuchte:Windchill:Wind:
Aussen-T/F 101 13-02-2011 20:09:02 4.3 C 5.58 g/m*3 4.3 C 0 km/h
102 13-02-2011 20:21:02 4.4 C 5.62 g/m*3 4.4 C 0 km/h
103 13-02-2011 20:33:02 4.3 C 5.51 g/m*3 4.3 C 0 km/h
104 13-02-2011 20:45:01 4.2 C 5.48 g/m*3 4.2 C 0 km/h
105 13-02-2011 20:57:01 4.2 C 5.54 g/m*3 4.2 C 0 km/h
106 13-02-2011 21:09:02 4.4 C 5.62 g/m*3 4.4 C 0 km/h
107 13-02-2011 21:21:02 4.2 C 5.54 g/m*3 4.2 C 0 km/h
108 13-02-2011 21:33:01 4.2 C 5.54 g/m*3 4.2 C 0 km/h
109 13-02-2011 21:45:02 4.2 C 5.54 g/m*3 4.2 C 0 km/h
110 13-02-2011 21:57:02 4.1 C 5.5 g/m*3 4.1 C 0 km/h
111 13-02-2011 22:09:01 4.2 C 5.54 g/m*3 4.2 C 0 km/h
112 13-02-2011 22:21:02 4.2 C 5.54 g/m*3 4.2 C 0 km/h
113 13-02-2011 22:34:03 4 C 5.47 g/m*3 4 C 0 km/h
114 13-02-2011 22:46:03 3.9 C 5.49 g/m*3 3.9 C 0 km/h
115 13-02-2011 22:58:03 4 C 5.53 g/m*3 4 C 0 km/h
116 13-02-2011 23:10:03 4.1 C 5.57 g/m*3 4.1 C 0 km/h
117 13-02-2011 23:22:03 3.9 C 5.56 g/m*3 3.9 C 0 km/h
118 13-02-2011 23:34:03 3.8 C 5.52 g/m*3 3.8 C 0 km/h
119 13-02-2011 23:46:03 3.8 C 5.52 g/m*3 3.8 C 0 km/h
120 13-02-2011 23:58:03 3.7 C 5.48 g/m*3 3.7 C 0 km/h
121 14-02-2011 00:10:03 3.6 C 5.45 g/m*3 3.6 C 0 km/h
122 14-02-2011 00:22:03 3.5 C 5.41 g/m*3 3.5 C 0 km/h
123 14-02-2011 00:34:03 3.4 C 5.44 g/m*3 3.4 C 0 km/h
124 14-02-2011 00:46:03 3.2 C 5.36 g/m*3 3.2 C 0 km/h
125 14-02-2011 00:58:03 3.1 C 5.33 g/m*3 3.1 C 0 km/h
Sensor: Nr:Datum:Temp:Abs-Feuchte:Windchill:Wind:
Aussen-T/F 126 14-02-2011 01:10:03 2.8 C 5.22 g/m*3 2.8 C 0 km/h
127 14-02-2011 01:22:03 2.9 C 5.32 g/m*3 2.9 C 0 km/h
128 14-02-2011 01:34:04 3 C 5.29 g/m*3 3 C 0 km/h
129 14-02-2011 01:46:04 3.1 C 5.33 g/m*3 3.1 C 0 km/h
130 14-02-2011 01:58:04 3 C 5.35 g/m*3 3 C 0 km/h
131 14-02-2011 02:10:04 2.8 C 5.28 g/m*3 2.8 C 0 km/h
132 14-02-2011 02:22:04 2.7 C 5.24 g/m*3 2.7 C 0 km/h
133 14-02-2011 02:34:04 2.6 C 5.21 g/m*3 2.6 C 0 km/h
134 14-02-2011 02:46:04 2.5 C 5.17 g/m*3 2.5 C 0 km/h
135 14-02-2011 02:58:04 2.5 C 5.17 g/m*3 2.5 C 0 km/h
136 14-02-2011 03:10:04 2.6 C 5.27 g/m*3 2.6 C 0 km/h
137 14-02-2011 03:22:04 2.3 C 5.16 g/m*3 2.3 C 0 km/h
138 14-02-2011 03:34:04 2.2 C 5.13 g/m*3 2.2 C 0 km/h
139 14-02-2011 03:46:04 2.2 C 5.13 g/m*3 2.2 C 0 km/h
140 14-02-2011 03:58:04 2 C 5.06 g/m*3 2 C 0 km/h
141 14-02-2011 04:10:04 2.1 C 5.09 g/m*3 2.1 C 0 km/h
142 14-02-2011 04:22:04 1.7 C 4.95 g/m*3 1.7 C 0 km/h
143 14-02-2011 04:34:04 1.6 C 4.92 g/m*3 1.6 C 0 km/h
144 14-02-2011 04:46:04 1.7 C 4.95 g/m*3 1.7 C 0 km/h
145 14-02-2011 04:58:04 1.6 C 4.92 g/m*3 1.6 C 0 km/h
146 14-02-2011 05:10:04 1.7 C 5.01 g/m*3 1.7 C 0 km/h
147 14-02-2011 05:22:04 1.9 C 5.08 g/m*3 1.9 C 0 km/h
148 14-02-2011 05:34:05 1.7 C 5.01 g/m*3 1.7 C 0 km/h
149 14-02-2011 05:46:02 2 C 5.06 g/m*3 2 C 0 km/h
150 14-02-2011 05:58:02 2 C 5.06 g/m*3 2 C 0 km/h
Sensor: Nr:Datum:Temp:Abs-Feuchte:Windchill:Wind:
Aussen-T/F 151 14-02-2011 06:10:02 2.1 C 5.15 g/m*3 2.1 C 0 km/h
152 14-02-2011 06:22:02 1.6 C 4.97 g/m*3 1.6 C 0 km/h
153 14-02-2011 06:34:02 1.6 C 4.97 g/m*3 1.6 C 0 km/h
154 14-02-2011 06:46:02 1.3 C 4.87 g/m*3 1.3 C 0 km/h
155 14-02-2011 06:58:02 1.4 C 4.91 g/m*3 1.4 C 0 km/h
156 14-02-2011 07:10:01 0.8 C 4.71 g/m*3 0.8 C 0 km/h
157 14-02-2011 07:22:01 1 C 4.78 g/m*3 1 C 0 km/h
158 14-02-2011 07:34:02 1.1 C 4.81 g/m*3 1.1 C 0 km/h
159 14-02-2011 07:46:02 1.2 C 4.84 g/m*3 1.2 C 0 km/h
160 14-02-2011 07:58:02 0.7 C 4.68 g/m*3 0.7 C 0 km/h
161 14-02-2011 08:10:02 0.4 C 4.58 g/m*3 0.4 C 0 km/h
162 14-02-2011 08:22:02 0.6 C 4.65 g/m*3 0.6 C 0 km/h
163 14-02-2011 08:34:02 1.4 C 4.91 g/m*3 1.4 C 0 km/h
164 14-02-2011 08:46:02 1.6 C 5.03 g/m*3 1.6 C 0 km/h
165 14-02-2011 08:58:02 2.4 C 5.25 g/m*3 2.4 C 0 km/h
166 14-02-2011 09:10:02 2.5 C 5.29 g/m*3 2.5 C 0 km/h
167 14-02-2011 09:22:02 3 C 5.47 g/m*3 3 C 0 km/h
168 14-02-2011 09:34:02 3.4 C 5.62 g/m*3 3.4 C 0 km/h
169 14-02-2011 09:46:02 3.6 C 5.69 g/m*3 3.6 C 0 km/h
170 14-02-2011 09:58:02 3.6 C 5.69 g/m*3 3.6 C 0 km/h
171 14-02-2011 10:10:02 3.7 C 5.67 g/m*3 3.7 C 0 km/h
172 14-02-2011 10:22:02 4.2 C 5.8 g/m*3 4.2 C 0 km/h
173 14-02-2011 10:34:02 4.7 C 5.93 g/m*3 4.7 C 0 km/h
174 14-02-2011 10:46:02 5.4 C 6.07 g/m*3 5.4 C 0 km/h
175 14-02-2011 10:58:02 6 C 6.17 g/m*3 6 C 0 km/h
Sensor: Nr:Datum:Temp:Abs-Feuchte:Windchill:Wind:
Aussen-T/F 176 14-02-2011 11:10:01 6.3 C 6 g/m*3 6.3 C 0 km/h
177 14-02-2011 11:22:02 6.8 C 6.04 g/m*3 6.8 C 0 km/h
178 14-02-2011 11:34:02 6.7 C 5.7 g/m*3 6.7 C 0 km/h
179 14-02-2011 11:46:02 7.1 C 5.62 g/m*3 7.1 C 0 km/h
180 14-02-2011 11:58:02 7.7 C 5.68 g/m*3 7.7 C 0 km/h
181 14-02-2011 12:10:03 7.7 C 5.51 g/m*3 7.7 C 0 km/h
182 14-02-2011 12:22:02 8.2 C 5.53 g/m*3 8.2 C 0 km/h
183 14-02-2011 12:34:02 8.4 C 5.51 g/m*3 8.4 C 0 km/h
184 14-02-2011 12:46:01 9.1 C 5.5 g/m*3 9.1 C 0 km/h
185 14-02-2011 12:58:01 9.2 C 5.27 g/m*3 9.2 C 0 km/h
186 14-02-2011 13:10:02 9.8 C 5.47 g/m*3 9.8 C 0 km/h
187 14-02-2011 13:22:01 9.6 C 5.5 g/m*3 9.6 C 0 km/h
188 14-02-2011 13:34:01 10.1 C 5.48 g/m*3 10.1 C 0 km/h
189 14-02-2011 13:46:01 9.9 C 5.32 g/m*3 9.9 C 0 km/h
190 14-02-2011 13:58:01 11 C 5.51 g/m*3 11 C 0 km/h
191 14-02-2011 14:10:02 10.2 C 5.33 g/m*3 10.2 C 0 km/h
192 14-02-2011 14:22:52 10.2 C 5.33 g/m*3 10.2 C 0 km/h
193 14-02-2011 14:34:47 9.7 C 5.35 g/m*3 9.7 C 0 km/h
194 14-02-2011 14:46:02 9.5 C 5.37 g/m*3 9.5 C 0 km/h
195 14-02-2011 14:58:02 10 C 5.36 g/m*3 10 C 0 km/h
196 14-02-2011 15:10:01 10 C 5.45 g/m*3 10 C 0 km/h
197 14-02-2011 15:22:02 10.6 C 5.66 g/m*3 10.6 C 0 km/h
198 14-02-2011 15:34:01 11 C 5.41 g/m*3 11 C 0 km/h
199 14-02-2011 15:46:02 10.5 C 5.53 g/m*3 10.5 C 0 km/h
200 14-02-2011 15:58:02 9.6 C 5.5 g/m*3 9.6 C 0 km/h
Sensor: Nr:Datum:Temp:Abs-Feuchte:Windchill:Wind:
Aussen-T/F 201 14-02-2011 16:10:02 9.3 C 5.48 g/m*3 9.3 C 0 km/h
202 14-02-2011 16:22:02 9.2 C 5.54 g/m*3 9.2 C 0 km/h
203 14-02-2011 16:34:02 8.9 C 5.61 g/m*3 8.9 C 0 km/h
204 14-02-2011 16:46:01 8.6 C 5.67 g/m*3 8.6 C 0 km/h
205 14-02-2011 16:58:01 8 C 5.62 g/m*3 8 C 0 km/h
206 14-02-2011 17:10:02 7.2 C 5.65 g/m*3 7.2 C 0 km/h
207 14-02-2011 17:22:01 6.7 C 5.85 g/m*3 6.7 C 0 km/h
208 14-02-2011 17:34:02 6.3 C 5.85 g/m*3 6.3 C 0 km/h
209 14-02-2011 17:46:02 6.2 C 5.88 g/m*3 6.2 C 0 km/h
210 14-02-2011 17:58:02 5.9 C 5.91 g/m*3 5.9 C 0 km/h
211 14-02-2011 18:10:02 6.2 C 6.03 g/m*3 6.2 C 0 km/h
212 14-02-2011 18:22:01 6.3 C 6.14 g/m*3 6.3 C 0 km/h
213 14-02-2011 18:34:02 6.2 C 6.1 g/m*3 6.2 C 0 km/h
214 14-02-2011 18:46:02 6.4 C 6.18 g/m*3 6.4 C 0 km/h
215 14-02-2011 18:58:02 6.5 C 6.15 g/m*3 6.5 C 0 km/h
216 14-02-2011 19:10:02 6.6 C 6.19 g/m*3 6.6 C 0 km/h
217 14-02-2011 19:22:02 6.5 C 6.15 g/m*3 6.5 C 0 km/h
218 14-02-2011 19:34:02 6.5 C 6.22 g/m*3 6.5 C 0 km/h
219 14-02-2011 19:46:01 6.4 C 6.26 g/m*3 6.4 C 0 km/h
220 14-02-2011 19:58:01 6.4 C 6.33 g/m*3 6.4 C 0 km/h
221 14-02-2011 20:10:02 6.4 C 6.41 g/m*3 6.4 C 0 km/h
222 14-02-2011 20:22:01 6.3 C 6.37 g/m*3 6.3 C 0 km/h
223 14-02-2011 20:34:01 6.4 C 6.41 g/m*3 6.4 C 0 km/h
224 14-02-2011 20:46:01 6.4 C 6.41 g/m*3 6.4 C 0 km/h
225 14-02-2011 20:58:01 6.3 C 6.37 g/m*3 6.3 C 0 km/h
Sensor: Nr:Datum:Temp:Abs-Feuchte:Windchill:Wind:
Aussen-T/F 226 14-02-2011 21:10:02 6.3 C 6.37 g/m*3 6.3 C 0 km/h
227 14-02-2011 21:22:01 6.3 C 6.37 g/m*3 6.3 C 0 km/h
228 14-02-2011 21:35:01 6.3 C 6.37 g/m*3 6.3 C 0 km/h
229 14-02-2011 21:47:01 6.2 C 6.32 g/m*3 6.2 C 0 km/h
230 14-02-2011 21:59:01 6.2 C 6.32 g/m*3 6.2 C 0 km/h
231 14-02-2011 22:11:01 6.1 C 6.28 g/m*3 6.1 C 0 km/h
232 14-02-2011 22:23:01 6.2 C 6.32 g/m*3 6.2 C 0 km/h
233 14-02-2011 22:35:01 6.2 C 6.25 g/m*3 6.2 C 0 km/h
234 14-02-2011 22:47:01 6.1 C 6.21 g/m*3 6.1 C 0 km/h
235 14-02-2011 22:59:01 6 C 6.17 g/m*3 6 C 0 km/h
236 14-02-2011 23:11:01 6 C 6.17 g/m*3 6 C 0 km/h
237 14-02-2011 23:23:02 5.9 C 6.2 g/m*3 5.9 C 0 km/h
238 14-02-2011 23:35:02 5.9 C 6.2 g/m*3 5.9 C 0 km/h
239 14-02-2011 23:47:02 5.9 C 6.2 g/m*3 5.9 C 0 km/h
240 14-02-2011 23:59:02 5.9 C 6.27 g/m*3 5.9 C 0 km/h
241 15-02-2011 00:11:02 5.9 C 6.27 g/m*3 5.9 C 0 km/h
242 15-02-2011 00:23:02 5.9 C 6.27 g/m*3 5.9 C 0 km/h
243 15-02-2011 00:35:02 5.9 C 6.27 g/m*3 5.9 C 0 km/h
244 15-02-2011 00:47:02 6 C 6.31 g/m*3 6 C 0 km/h
245 15-02-2011 00:59:02 5.9 C 6.35 g/m*3 5.9 C 0 km/h
246 15-02-2011 01:11:02 5.9 C 6.35 g/m*3 5.9 C 0 km/h
247 15-02-2011 01:23:02 5.9 C 6.42 g/m*3 5.9 C 0 km/h
248 15-02-2011 01:35:02 5.9 C 6.42 g/m*3 5.9 C 0 km/h
249 15-02-2011 01:47:02 5.8 C 6.38 g/m*3 5.8 C 0 km/h
250 15-02-2011 01:59:02 5.9 C 6.42 g/m*3 5.9 C 0 km/h
Sensor: Nr:Datum:Temp:Abs-Feuchte:Windchill:Wind:
Aussen-T/F 251 15-02-2011 02:11:02 5.9 C 6.49 g/m*3 5.9 C 0 km/h
252 15-02-2011 02:23:02 5.7 C 6.4 g/m*3 5.7 C 0 km/h
253 15-02-2011 02:35:02 5.6 C 6.36 g/m*3 5.6 C 0 km/h
254 15-02-2011 02:47:02 5.4 C 6.28 g/m*3 5.4 C 0 km/h
255 15-02-2011 02:59:02 5.2 C 6.2 g/m*3 5.2 C 0 km/h
256 15-02-2011 03:11:02 4.9 C 6.08 g/m*3 4.9 C 0 km/h
257 15-02-2011 03:23:02 4.8 C 6.04 g/m*3 4.8 C 0 km/h
258 15-02-2011 03:35:03 4.6 C 5.96 g/m*3 4.6 C 0 km/h
259 15-02-2011 03:47:03 4.4 C 5.88 g/m*3 4.4 C 0 km/h
260 15-02-2011 03:59:03 4.4 C 5.88 g/m*3 4.4 C 0 km/h
261 15-02-2011 04:11:03 4.5 C 5.92 g/m*3 4.5 C 0 km/h
262 15-02-2011 04:23:03 4.5 C 5.92 g/m*3 4.5 C 0 km/h
263 15-02-2011 04:35:03 4.5 C 5.92 g/m*3 4.5 C 0 km/h
264 15-02-2011 04:47:03 4.6 C 6.02 g/m*3 4.6 C 0 km/h
265 15-02-2011 04:59:03 4.4 C 5.88 g/m*3 4.4 C 0 km/h
266 15-02-2011 05:11:03 4.3 C 5.84 g/m*3 4.3 C 0 km/h
267 15-02-2011 05:23:03 4.3 C 5.84 g/m*3 4.3 C 0 km/h
268 15-02-2011 05:35:03 4.2 C 5.8 g/m*3 4.2 C 0 km/h
269 15-02-2011 05:47:03 4.3 C 5.9 g/m*3 4.3 C 0 km/h
270 15-02-2011 05:59:03 4.3 C 5.9 g/m*3 4.3 C 0 km/h
271 15-02-2011 06:11:03 4.2 C 5.86 g/m*3 4.2 C 0 km/h
272 15-02-2011 06:23:03 4.2 C 5.86 g/m*3 4.2 C 0 km/h
273 15-02-2011 06:35:03 4.3 C 5.9 g/m*3 4.3 C 0 km/h
274 15-02-2011 06:47:03 4.3 C 5.9 g/m*3 4.3 C 0 km/h
275 15-02-2011 06:59:03 4.2 C 5.86 g/m*3 4.2 C 0 km/h
Sensor: Nr:Datum:Temp:Abs-Feuchte:Windchill:Wind:
Aussen-T/F 276 15-02-2011 07:11:03 4 C 5.79 g/m*3 4 C 0 km/h
277 15-02-2011 07:23:03 3.9 C 5.81 g/m*3 3.9 C 0 km/h
278 15-02-2011 07:35:01 3.6 C 5.63 g/m*3 3.6 C 0 km/h
279 15-02-2011 07:47:01 3.6 C 5.63 g/m*3 3.6 C 0 km/h
280 15-02-2011 07:59:01 3.6 C 5.63 g/m*3 3.6 C 0 km/h
281 15-02-2011 08:11:02 3.7 C 5.67 g/m*3 3.7 C 0 km/h
282 15-02-2011 08:23:02 3.7 C 5.67 g/m*3 3.7 C 0 km/h
283 15-02-2011 08:35:01 3.8 C 5.77 g/m*3 3.8 C 0 km/h
284 15-02-2011 08:47:02 3.9 C 5.81 g/m*3 3.9 C 0 km/h
285 15-02-2011 08:59:02 4.1 C 5.82 g/m*3 4.1 C 0 km/h
286 15-02-2011 09:11:01 4.2 C 5.86 g/m*3 4.2 C 0 km/h
287 15-02-2011 09:23:02 4.6 C 6.02 g/m*3 4.6 C 0 km/h
288 15-02-2011 09:35:01 4.7 C 6 g/m*3 4.7 C 0 km/h
289 15-02-2011 09:47:02 4.6 C 5.96 g/m*3 4.6 C 0 km/h
290 15-02-2011 09:59:02 4.9 C 6.01 g/m*3 4.9 C 0 km/h
291 15-02-2011 10:11:02 5.4 C 6.14 g/m*3 5.4 C 0 km/h
292 15-02-2011 10:23:02 5.6 C 6.15 g/m*3 5.6 C 0 km/h
293 15-02-2011 10:35:02 5.8 C 6.16 g/m*3 5.8 C 0 km/h
294 15-02-2011 10:47:01 5.6 C 5.87 g/m*3 5.6 C 0 km/h
295 15-02-2011 10:59:01 5.9 C 5.91 g/m*3 5.9 C 0 km/h
296 15-02-2011 11:11:01 6.4 C 5.89 g/m*3 6.4 C 0 km/h
297 15-02-2011 11:23:02 7.1 C 5.85 g/m*3 7.1 C 0 km/h
298 15-02-2011 11:35:01 6.8 C 5.66 g/m*3 6.8 C 0 km/h
299 15-02-2011 11:47:02 7.1 C 5.62 g/m*3 7.1 C 0 km/h
300 15-02-2011 11:59:03 7.5 C 5.68 g/m*3 7.5 C 0 km/h
Sensor: Nr:Datum:Temp:Abs-Feuchte:Windchill:Wind:
Aussen-T/F 301 15-02-2011 12:11:01 8 C 5.54 g/m*3 8 C 0 km/h
302 15-02-2011 12:23:01 7.8 C 5.55 g/m*3 7.8 C 0 km/h
303 15-02-2011 12:35:01 7.6 C 5.48 g/m*3 7.6 C 0 km/h
304 15-02-2011 12:47:02 7.4 C 5.49 g/m*3 7.4 C 0 km/h
305 15-02-2011 12:59:02 7.4 C 5.41 g/m*3 7.4 C 0 km/h
306 15-02-2011 13:11:01 7.3 C 5.29 g/m*3 7.3 C 0 km/h
307 15-02-2011 13:23:02 7.8 C 5.55 g/m*3 7.8 C 0 km/h
308 15-02-2011 13:35:01 7.8 C 5.55 g/m*3 7.8 C 0 km/h
309 15-02-2011 13:47:02 6.9 C 5.23 g/m*3 6.9 C 0 km/h
310 15-02-2011 13:59:02 7.1 C 5.38 g/m*3 7.1 C 0 km/h
311 15-02-2011 14:11:01 7.1 C 5.46 g/m*3 7.1 C 0 km/h
312 15-02-2011 14:23:02 6.5 C 5.4 g/m*3 6.5 C 0 km/h
313 15-02-2011 14:35:02 6.7 C 5.39 g/m*3 6.7 C 0 km/h
314 15-02-2011 14:47:02 7 C 5.42 g/m*3 7 C 0 km/h
315 15-02-2011 14:59:02 6.3 C 5.26 g/m*3 6.3 C 0 km/h
316 15-02-2011 15:11:02 6.7 C 5.47 g/m*3 6.7 C 0 km/h
317 15-02-2011 15:23:02 6.8 C 5.43 g/m*3 6.8 C 0 km/h
318 15-02-2011 15:35:03 6.3 C 5.33 g/m*3 6.3 C 0 km/h
319 15-02-2011 15:47:02 6.1 C 5.33 g/m*3 6.1 C 0 km/h
320 15-02-2011 15:59:02 5.7 C 5.27 g/m*3 5.7 C 0 km/h
321 15-02-2011 16:11:02 5.7 C 5.34 g/m*3 5.7 C 0 km/h
322 15-02-2011 16:23:02 5.5 C 5.34 g/m*3 5.5 C 0 km/h
323 15-02-2011 16:35:02 5.5 C 5.48 g/m*3 5.5 C 0 km/h
324 15-02-2011 16:47:01 5.3 C 5.41 g/m*3 5.3 C 0 km/h
325 15-02-2011 16:59:01 5.4 C 5.44 g/m*3 5.4 C 0 km/h
Sensor: Nr:Datum:Temp:Abs-Feuchte:Windchill:Wind:
Aussen-T/F 326 15-02-2011 17:11:02 5.2 C 5.3 g/m*3 5.2 C 0 km/h
327 15-02-2011 17:23:01 5.1 C 5.34 g/m*3 5.1 C 0 km/h
328 15-02-2011 17:35:02 5 C 5.23 g/m*3 5 C 0 km/h
329 15-02-2011 17:47:01 4.8 C 5.3 g/m*3 4.8 C 0 km/h
330 15-02-2011 17:59:01 4.8 C 5.3 g/m*3 4.8 C 0 km/h
331 15-02-2011 18:11:02 4.5 C 5.19 g/m*3 4.5 C 0 km/h
332 15-02-2011 18:23:02 4.5 C 5.26 g/m*3 4.5 C 0 km/h
333 15-02-2011 18:35:02 4.5 C 5.26 g/m*3 4.5 C 0 km/h
334 15-02-2011 18:47:02 4.8 C 5.3 g/m*3 4.8 C 0 km/h
335 15-02-2011 18:59:02 4.8 C 5.3 g/m*3 4.8 C 0 km/h
336 15-02-2011 19:11:02 4.7 C 5.26 g/m*3 4.7 C 0 km/h
337 15-02-2011 19:23:02 4.4 C 5.16 g/m*3 4.4 C 0 km/h
338 15-02-2011 19:35:02 4.1 C 5.18 g/m*3 4.1 C 0 km/h
339 15-02-2011 19:47:02 4 C 5.15 g/m*3 4 C 0 km/h
340 15-02-2011 19:59:02 3.7 C 5.17 g/m*3 3.7 C 0 km/h
341 15-02-2011 20:11:01 3.2 C 5.06 g/m*3 3.2 C 0 km/h
342 15-02-2011 20:23:02 3.4 C 5.19 g/m*3 3.4 C 0 km/h
343 15-02-2011 20:35:01 3 C 5.11 g/m*3 3 C 0 km/h
344 15-02-2011 20:47:02 3.5 C 5.35 g/m*3 3.5 C 0 km/h
345 15-02-2011 20:59:02 4 C 5.53 g/m*3 4 C 0 km/h
346 15-02-2011 21:11:01 3.9 C 5.49 g/m*3 3.9 C 0 km/h
347 15-02-2011 21:23:01 4.1 C 5.5 g/m*3 4.1 C 0 km/h
348 15-02-2011 21:35:02 4.1 C 5.5 g/m*3 4.1 C 0 km/h
349 15-02-2011 21:47:02 4.3 C 5.58 g/m*3 4.3 C 0 km/h
350 15-02-2011 21:59:02 4.8 C 5.77 g/m*3 4.8 C 0 km/h
Sensor: Nr:Datum:Temp:Abs-Feuchte:Windchill:Wind:
Aussen-T/F 351 15-02-2011 22:12:03 4.8 C 5.7 g/m*3 4.8 C 0 km/h
352 15-02-2011 22:24:03 4.6 C 5.56 g/m*3 4.6 C 0 km/h
353 15-02-2011 22:36:03 4.1 C 5.38 g/m*3 4.1 C 0 km/h
354 15-02-2011 22:48:03 3.5 C 5.23 g/m*3 3.5 C 0 km/h
355 15-02-2011 23:00:03 4.1 C 5.5 g/m*3 4.1 C 0 km/h
356 15-02-2011 23:12:03 4.2 C 5.61 g/m*3 4.2 C 0 km/h
357 15-02-2011 23:24:03 4.3 C 5.64 g/m*3 4.3 C 0 km/h
358 15-02-2011 23:36:03 4.6 C 5.76 g/m*3 4.6 C 0 km/h
359 15-02-2011 23:48:03 4.6 C 5.76 g/m*3 4.6 C 0 km/h
360 16-02-2011 00:00:03 4.5 C 5.72 g/m*3 4.5 C 0 km/h
361 16-02-2011 00:12:03 4.8 C 5.83 g/m*3 4.8 C 0 km/h
362 16-02-2011 00:24:03 5.2 C 5.78 g/m*3 5.2 C 0 km/h
363 16-02-2011 00:36:03 5.2 C 5.78 g/m*3 5.2 C 0 km/h
364 16-02-2011 00:48:03 4.2 C 5.35 g/m*3 4.2 C 0 km/h
365 16-02-2011 01:00:03 3.5 C 5.16 g/m*3 3.5 C 0 km/h
366 16-02-2011 01:12:03 2.9 C 5.08 g/m*3 2.9 C 0 km/h
367 16-02-2011 01:24:03 3.4 C 5.31 g/m*3 3.4 C 0 km/h
368 16-02-2011 01:36:03 3.7 C 5.48 g/m*3 3.7 C 0 km/h
369 16-02-2011 01:48:03 4.1 C 5.63 g/m*3 4.1 C 0 km/h
370 16-02-2011 02:00:03 4.3 C 5.77 g/m*3 4.3 C 0 km/h
371 16-02-2011 02:12:04 4.5 C 5.85 g/m*3 4.5 C 0 km/h
372 16-02-2011 02:24:04 4.4 C 5.81 g/m*3 4.4 C 0 km/h
373 16-02-2011 02:36:04 3.8 C 5.58 g/m*3 3.8 C 0 km/h
374 16-02-2011 02:48:04 4.1 C 5.7 g/m*3 4.1 C 0 km/h
375 16-02-2011 03:00:04 4.5 C 5.85 g/m*3 4.5 C 0 km/h
Sensor: Nr:Datum:Temp:Abs-Feuchte:Windchill:Wind:
Aussen-T/F 376 16-02-2011 03:12:04 4.3 C 5.77 g/m*3 4.3 C 0 km/h
377 16-02-2011 03:24:04 4.2 C 5.73 g/m*3 4.2 C 0 km/h
378 16-02-2011 03:36:04 4.4 C 5.81 g/m*3 4.4 C 0 km/h
379 16-02-2011 03:48:04 4.7 C 5.93 g/m*3 4.7 C 0 km/h
380 16-02-2011 04:00:04 4.5 C 5.78 g/m*3 4.5 C 0 km/h
381 16-02-2011 04:12:04 4.1 C 5.63 g/m*3 4.1 C 0 km/h
382 16-02-2011 04:24:04 4 C 5.59 g/m*3 4 C 0 km/h
383 16-02-2011 04:36:04 3.2 C 5.3 g/m*3 3.2 C 0 km/h
384 16-02-2011 04:48:04 3.1 C 5.27 g/m*3 3.1 C 0 km/h
385 16-02-2011 05:00:04 2.7 C 5.19 g/m*3 2.7 C 0 km/h
386 16-02-2011 05:12:04 2.2 C 5.01 g/m*3 2.2 C 0 km/h
387 16-02-2011 05:24:04 2.4 C 5.08 g/m*3 2.4 C 0 km/h
388 16-02-2011 05:36:04 2.3 C 5.05 g/m*3 2.3 C 0 km/h
389 16-02-2011 05:48:04 3.3 C 5.46 g/m*3 3.3 C 0 km/h
390 16-02-2011 06:00:04 3.2 C 5.42 g/m*3 3.2 C 0 km/h
391 16-02-2011 06:12:04 3.6 C 5.57 g/m*3 3.6 C 0 km/h
392 16-02-2011 06:24:05 3.8 C 5.65 g/m*3 3.8 C 0 km/h
393 16-02-2011 06:36:05 3.9 C 5.68 g/m*3 3.9 C 0 km/h
394 16-02-2011 06:48:05 4.2 C 5.73 g/m*3 4.2 C 0 km/h
395 16-02-2011 07:00:05 4.5 C 5.78 g/m*3 4.5 C 0 km/h
396 16-02-2011 07:12:05 4.3 C 5.64 g/m*3 4.3 C 0 km/h
397 16-02-2011 07:24:05 3.8 C 5.46 g/m*3 3.8 C 0 km/h
398 16-02-2011 07:36:05 4.1 C 5.5 g/m*3 4.1 C 0 km/h
399 16-02-2011 07:48:02 3.8 C 5.4 g/m*3 3.8 C 0 km/h
400 16-02-2011 08:00:02 3.8 C 5.4 g/m*3 3.8 C 0 km/h
Sensor: Nr:Datum:Temp:Abs-Feuchte:Windchill:Wind:
Aussen-T/F 401 16-02-2011 08:12:02 4.1 C 5.44 g/m*3 4.1 C 0 km/h
402 16-02-2011 08:24:03 4.2 C 5.48 g/m*3 4.2 C 0 km/h
403 16-02-2011 08:36:02 4.4 C 5.55 g/m*3 4.4 C 0 km/h
404 16-02-2011 08:48:03 4.5 C 5.59 g/m*3 4.5 C 0 km/h
405 16-02-2011 09:00:03 4.7 C 5.66 g/m*3 4.7 C 0 km/h
406 16-02-2011 09:12:02 5.1 C 5.61 g/m*3 5.1 C 0 km/h
407 16-02-2011 09:24:02 5.7 C 5.84 g/m*3 5.7 C 0 km/h
408 16-02-2011 09:36:02 5.9 C 5.77 g/m*3 5.9 C 0 km/h
409 16-02-2011 09:48:02 5.8 C 5.59 g/m*3 5.8 C 0 km/h
410 16-02-2011 10:00:02 6.6 C 5.66 g/m*3 6.6 C 0 km/h
411 16-02-2011 10:12:02 6.5 C 5.32 g/m*3 6.5 C 0 km/h
412 16-02-2011 10:24:02 6.7 C 5.32 g/m*3 6.7 C 0 km/h
413 16-02-2011 10:36:02 7.5 C 5.44 g/m*3 7.5 C 0 km/h
414 16-02-2011 10:48:02 7.6 C 5.4 g/m*3 7.6 C 0 km/h
415 16-02-2011 11:00:02 7.4 C 5.41 g/m*3 7.4 C 0 km/h
416 16-02-2011 11:12:03 7.4 C 5.25 g/m*3 7.4 C 0 km/h
417 16-02-2011 11:24:02 7.4 C 5.41 g/m*3 7.4 C 0 km/h
418 16-02-2011 11:36:02 7.9 C 5.42 g/m*3 7.9 C 0 km/h
419 16-02-2011 11:48:01 8.2 C 5.36 g/m*3 8.2 C 0 km/h
420 16-02-2011 12:00:01 8.3 C 5.31 g/m*3 8.3 C 0 km/h
421 16-02-2011 12:12:02 7.8 C 5.14 g/m*3 7.8 C 0 km/h
422 16-02-2011 12:24:01 7.9 C 5.42 g/m*3 7.9 C 0 km/h
423 16-02-2011 12:36:01 7.9 C 5.42 g/m*3 7.9 C 0 km/h
424 16-02-2011 12:48:01 7.7 C 5.35 g/m*3 7.7 C 0 km/h
425 16-02-2011 13:00:01 8.4 C 5.26 g/m*3 8.4 C 0 km/h
Sensor: Nr:Datum:Temp:Abs-Feuchte:Windchill:Wind:
Aussen-T/F 426 16-02-2011 13:12:02 9.5 C 5.37 g/m*3 9.5 C 0 km/h
427 16-02-2011 13:24:02 9.5 C 5.28 g/m*3 9.5 C 0 km/h
428 16-02-2011 13:36:01 9.3 C 5.3 g/m*3 9.3 C 0 km/h
429 16-02-2011 13:48:02 8.6 C 5.24 g/m*3 8.6 C 0 km/h
430 16-02-2011 14:00:02 8.4 C 5.26 g/m*3 8.4 C 0 km/h
431 16-02-2011 14:12:01 8.6 C 5.33 g/m*3 8.6 C 0 km/h
432 16-02-2011 14:24:02 9.6 C 5.4 g/m*3 9.6 C 0 km/h
433 16-02-2011 14:36:01 9.6 C 5.22 g/m*3 9.6 C 0 km/h
434 16-02-2011 14:48:02 9 C 5.2 g/m*3 9 C 0 km/h
435 16-02-2011 15:00:02 8.8 C 5.31 g/m*3 8.8 C 0 km/h
436 16-02-2011 15:12:02 8.7 C 5.28 g/m*3 8.7 C 0 km/h
437 16-02-2011 15:24:02 8.8 C 5.31 g/m*3 8.8 C 0 km/h
438 16-02-2011 15:36:02 9.5 C 5.55 g/m*3 9.5 C 0 km/h
439 16-02-2011 15:48:02 9.3 C 5.39 g/m*3 9.3 C 0 km/h
440 16-02-2011 16:00:02 10.6 C 5.47 g/m*3 10.6 C 0 km/h
441 16-02-2011 16:12:02 10.6 C 5.37 g/m*3 10.6 C 0 km/h
442 16-02-2011 16:24:01 10.7 C 5.21 g/m*3 10.7 C 0 km/h
443 16-02-2011 16:36:02 9.8 C 5.29 g/m*3 9.8 C 0 km/h
444 16-02-2011 16:48:02 8.8 C 5.4 g/m*3 8.8 C 0 km/h
445 16-02-2011 17:00:02 7.9 C 5.5 g/m*3 7.9 C 0 km/h
446 16-02-2011 17:12:02 7.5 C 5.52 g/m*3 7.5 C 0 km/h
447 16-02-2011 17:24:02 6.4 C 5.44 g/m*3 6.4 C 0 km/h
448 16-02-2011 17:36:02 5.4 C 5.37 g/m*3 5.4 C 0 km/h
449 16-02-2011 17:48:02 4.9 C 5.4 g/m*3 4.9 C 0 km/h
450 16-02-2011 18:00:02 4.4 C 5.35 g/m*3 4.4 C 0 km/h
Sensor: Nr:Datum:Temp:Abs-Feuchte:Windchill:Wind:
Aussen-T/F 451 16-02-2011 18:12:03 4.2 C 5.35 g/m*3 4.2 C 0 km/h
452 16-02-2011 18:24:02 3.8 C 5.27 g/m*3 3.8 C 0 km/h
453 16-02-2011 18:36:02 3.5 C 5.23 g/m*3 3.5 C 0 km/h
454 16-02-2011 18:48:02 3.5 C 5.29 g/m*3 3.5 C 0 km/h
455 16-02-2011 19:00:02 3.3 C 5.22 g/m*3 3.3 C 0 km/h
456 16-02-2011 19:12:01 3 C 5.17 g/m*3 3 C 0 km/h
457 16-02-2011 19:24:01 2.9 C 5.2 g/m*3 2.9 C 0 km/h
458 16-02-2011 19:36:02 2.7 C 5.13 g/m*3 2.7 C 0 km/h
459 16-02-2011 19:48:02 2.6 C 5.09 g/m*3 2.6 C 0 km/h
460 16-02-2011 20:00:02 2.3 C 4.99 g/m*3 2.3 C 0 km/h
461 16-02-2011 20:12:02 2.3 C 4.99 g/m*3 2.3 C 0 km/h
462 16-02-2011 20:24:02 2.1 C 4.98 g/m*3 2.1 C 0 km/h
463 16-02-2011 20:36:02 2.1 C 4.98 g/m*3 2.1 C 0 km/h
464 16-02-2011 20:48:01 1.4 C 4.75 g/m*3 1.4 C 0 km/h
465 16-02-2011 21:00:01 1.8 C 4.93 g/m*3 1.8 C 0 km/h
466 16-02-2011 21:12:02 1.5 C 4.78 g/m*3 1.5 C 0 km/h
467 16-02-2011 21:24:01 1.3 C 4.77 g/m*3 1.3 C 0 km/h
468 16-02-2011 21:36:02 1.5 C 4.83 g/m*3 1.5 C 0 km/h
469 16-02-2011 21:49:03 1.4 C 4.8 g/m*3 1.4 C 0 km/h
470 16-02-2011 22:01:04 1.4 C 4.8 g/m*3 1.4 C 0 km/h
471 16-02-2011 22:13:04 0.7 C 4.63 g/m*3 0.7 C 0 km/h
472 16-02-2011 22:25:04 0.6 C 4.6 g/m*3 0.6 C 0 km/h
473 16-02-2011 22:37:04 0.6 C 4.6 g/m*3 0.6 C 0 km/h
474 16-02-2011 22:49:04 0 C 4.41 g/m*3 0 C 0 km/h
475 16-02-2011 23:01:04 -0.2 C 4.35 g/m*3 -0.2 C 0 km/h
Sensor: Nr:Datum:Temp:Abs-Feuchte:Windchill:Wind:
Aussen-T/F 476 16-02-2011 23:13:04 -0.4 C 4.29 g/m*3 -0.4 C 0 km/h
477 16-02-2011 23:25:04 -0.4 C 4.29 g/m*3 -0.4 C 0 km/h
478 16-02-2011 23:37:04 0 C 4.41 g/m*3 0 C 0 km/h
479 16-02-2011 23:49:04 -0.3 C 4.32 g/m*3 -0.3 C 0 km/h
480 17-02-2011 00:01:04 -0.8 C 4.17 g/m*3 -0.8 C 0 km/h
481 17-02-2011 00:13:04 -0.9 C 4.1 g/m*3 -0.9 C 0 km/h
482 17-02-2011 00:25:04 -1 C 4.07 g/m*3 -1 C 0 km/h
483 17-02-2011 00:37:04 -1 C 4.07 g/m*3 -1 C 0 km/h
484 17-02-2011 00:49:04 -1 C 4.07 g/m*3 -1 C 0 km/h
485 17-02-2011 01:01:04 -0.9 C 4.1 g/m*3 -0.9 C 0 km/h
486 17-02-2011 01:13:04 -0.7 C 4.2 g/m*3 -0.7 C 0 km/h
487 17-02-2011 01:25:04 -1 C 4.11 g/m*3 -1 C 0 km/h
488 17-02-2011 01:37:04 -0.5 C 4.26 g/m*3 -0.5 C 0 km/h
489 17-02-2011 01:49:04 -0.5 C 4.26 g/m*3 -0.5 C 0 km/h
490 17-02-2011 02:01:05 -0.4 C 4.29 g/m*3 -0.4 C 0 km/h
491 17-02-2011 02:13:05 -0.3 C 4.32 g/m*3 -0.3 C 0 km/h
492 17-02-2011 02:25:05 -0.3 C 4.37 g/m*3 -0.3 C 0 km/h
493 17-02-2011 02:37:05 -0.7 C 4.2 g/m*3 -0.7 C 0 km/h
494 17-02-2011 02:49:05 -0.5 C 4.26 g/m*3 -0.5 C 0 km/h
495 17-02-2011 03:01:05 -0.5 C 4.31 g/m*3 -0.5 C 0 km/h
496 17-02-2011 03:13:05 -0.4 C 4.34 g/m*3 -0.4 C 0 km/h
497 17-02-2011 03:25:05 -0.2 C 4.4 g/m*3 -0.2 C 0 km/h
498 17-02-2011 03:37:05 -0.1 C 4.43 g/m*3 -0.1 C 0 km/h
499 17-02-2011 03:49:05 0 C 4.46 g/m*3 0 C 0 km/h
500 17-02-2011 04:01:05 -0.1 C 4.43 g/m*3 -0.1 C 0 km/h
Sensor: Nr:Datum:Temp:Abs-Feuchte:Windchill:Wind:
Aussen-T/F 501 17-02-2011 04:13:05 0 C 4.46 g/m*3 0 C 0 km/h
502 17-02-2011 04:25:05 0.1 C 4.49 g/m*3 0.1 C 0 km/h
503 17-02-2011 04:37:05 0.2 C 4.52 g/m*3 0.2 C 0 km/h
504 17-02-2011 04:49:05 0.4 C 4.63 g/m*3 0.4 C 0 km/h
505 17-02-2011 05:01:05 0.5 C 4.66 g/m*3 0.5 C 0 km/h
506 17-02-2011 05:13:05 0.5 C 4.66 g/m*3 0.5 C 0 km/h
507 17-02-2011 05:25:05 0.5 C 4.66 g/m*3 0.5 C 0 km/h
508 17-02-2011 05:37:05 0.5 C 4.66 g/m*3 0.5 C 0 km/h
509 17-02-2011 05:49:05 0.6 C 4.7 g/m*3 0.6 C 0 km/h
510 17-02-2011 06:01:05 0.8 C 4.76 g/m*3 0.8 C 0 km/h
511 17-02-2011 06:13:06 0.8 C 4.76 g/m*3 0.8 C 0 km/h
512 17-02-2011 06:25:06 0.9 C 4.79 g/m*3 0.9 C 0 km/h
513 17-02-2011 06:37:06 1.1 C 4.86 g/m*3 1.1 C 0 km/h
514 17-02-2011 06:49:06 1.1 C 4.86 g/m*3 1.1 C 0 km/h
515 17-02-2011 07:01:06 1.1 C 4.86 g/m*3 1.1 C 0 km/h
516 17-02-2011 07:13:06 1.2 C 4.89 g/m*3 1.2 C 0 km/h
517 17-02-2011 07:25:06 1.2 C 4.89 g/m*3 1.2 C 0 km/h
518 17-02-2011 07:37:03 1.3 C 4.93 g/m*3 1.3 C 0 km/h
519 17-02-2011 07:49:02 1.3 C 4.93 g/m*3 1.3 C 0 km/h
520 17-02-2011 08:01:02 1.4 C 4.96 g/m*3 1.4 C 0 km/h
521 17-02-2011 08:13:02 1.4 C 4.96 g/m*3 1.4 C 0 km/h
522 17-02-2011 08:25:02 1.4 C 4.96 g/m*3 1.4 C 0 km/h
523 17-02-2011 08:37:02 1.6 C 5.03 g/m*3 1.6 C 0 km/h
524 17-02-2011 08:49:02 1.8 C 5.1 g/m*3 1.8 C 0 km/h
525 17-02-2011 09:01:02 2.1 C 5.2 g/m*3 2.1 C 0 km/h
Sensor: Nr:Datum:Temp:Abs-Feuchte:Windchill:Wind:
Aussen-T/F 526 17-02-2011 09:13:02 2.2 C 5.24 g/m*3 2.2 C 0 km/h
527 17-02-2011 09:25:02 2.5 C 5.35 g/m*3 2.5 C 0 km/h
528 17-02-2011 09:37:02 2.4 C 5.25 g/m*3 2.4 C 0 km/h
529 17-02-2011 09:49:02 2.4 C 5.25 g/m*3 2.4 C 0 km/h
530 17-02-2011 10:01:02 3.1 C 5.51 g/m*3 3.1 C 0 km/h
531 17-02-2011 10:13:02 3.4 C 5.5 g/m*3 3.4 C 0 km/h
532 17-02-2011 10:25:02 4.1 C 5.44 g/m*3 4.1 C 0 km/h
533 17-02-2011 10:37:02 4.2 C 4.83 g/m*3 4.2 C 0 km/h
534 17-02-2011 10:49:02 4.1 C 4.42 g/m*3 4.1 C 0 km/h
535 17-02-2011 11:01:03 3.8 C 4.27 g/m*3 3.8 C 0 km/h
536 17-02-2011 11:13:03 3.6 C 4.27 g/m*3 3.6 C 0 km/h
537 17-02-2011 11:25:02 3.5 C 4.3 g/m*3 3.5 C 0 km/h
538 17-02-2011 11:37:02 4.4 C 4.24 g/m*3 4.4 C 0 km/h
539 17-02-2011 11:49:01 4.7 C 4.06 g/m*3 4.7 C 0 km/h
540 17-02-2011 12:01:01 6.1 C 4.02 g/m*3 6.1 C 0 km/h
541 17-02-2011 12:13:02 5.8 C 3.94 g/m*3 5.8 C 0 km/h
542 17-02-2011 12:25:01 5.6 C 3.82 g/m*3 5.6 C 0 km/h
543 17-02-2011 12:37:01 5.7 C 3.84 g/m*3 5.7 C 0 km/h
544 17-02-2011 12:49:01 7.4 C 4.14 g/m*3 7.4 C 0 km/h
545 17-02-2011 13:01:01 8 C 3.89 g/m*3 8 C 0 km/h
546 17-02-2011 13:13:01 6.5 C 3.6 g/m*3 6.5 C 0 km/h
547 17-02-2011 13:25:02 7 C 3.72 g/m*3 7 C 0 km/h
548 17-02-2011 13:37:01 5.6 C 3.75 g/m*3 5.6 C 0 km/h
549 17-02-2011 13:49:02 5 C 3.81 g/m*3 5 C 0 km/h
550 17-02-2011 14:01:02 5.1 C 3.9 g/m*3 5.1 C 0 km/h
Sensor: Nr:Datum:Temp:Abs-Feuchte:Windchill:Wind:
Aussen-T/F 551 17-02-2011 14:13:02 5.3 C 3.88 g/m*3 5.3 C 0 km/h
552 17-02-2011 14:25:02 5.7 C 3.91 g/m*3 5.7 C 0 km/h
553 17-02-2011 14:37:02 5.8 C 3.94 g/m*3 5.8 C 0 km/h
554 17-02-2011 14:49:02 5.6 C 3.68 g/m*3 5.6 C 0 km/h
555 17-02-2011 15:01:01 6.1 C 3.87 g/m*3 6.1 C 0 km/h
556 17-02-2011 15:13:01 6.1 C 3.8 g/m*3 6.1 C 0 km/h
557 17-02-2011 15:25:02 5.5 C 3.79 g/m*3 5.5 C 0 km/h
558 17-02-2011 15:37:02 5.5 C 3.79 g/m*3 5.5 C 0 km/h
559 17-02-2011 15:49:02 5.8 C 3.72 g/m*3 5.8 C 0 km/h
560 17-02-2011 16:01:02 4.7 C 3.73 g/m*3 4.7 C 0 km/h
561 17-02-2011 16:13:02 4.4 C 3.79 g/m*3 4.4 C 0 km/h
562 17-02-2011 16:25:02 4.1 C 3.78 g/m*3 4.1 C 0 km/h
563 17-02-2011 16:37:02 4 C 3.75 g/m*3 4 C 0 km/h
564 17-02-2011 16:49:01 3.6 C 3.84 g/m*3 3.6 C 0 km/h
565 17-02-2011 17:01:01 3.3 C 3.7 g/m*3 3.3 C 0 km/h
566 17-02-2011 17:13:01 3 C 3.69 g/m*3 3 C 0 km/h
567 17-02-2011 17:25:01 2.9 C 3.78 g/m*3 2.9 C 0 km/h
568 17-02-2011 17:37:01 2.6 C 3.65 g/m*3 2.6 C 0 km/h
569 17-02-2011 17:49:01 2.1 C 3.69 g/m*3 2.1 C 0 km/h
570 17-02-2011 18:01:01 1.5 C 3.71 g/m*3 1.5 C 0 km/h
571 17-02-2011 18:13:01 1.4 C 3.79 g/m*3 1.4 C 0 km/h
572 17-02-2011 18:25:02 1 C 3.74 g/m*3 1 C 0 km/h
573 17-02-2011 18:37:01 0.6 C 3.69 g/m*3 0.6 C 0 km/h
574 17-02-2011 18:49:03 0.3 C 3.66 g/m*3 0.3 C 0 km/h
575 17-02-2011 19:01:02 0 C 3.68 g/m*3 0 C 0 km/h
Sensor: Nr:Datum:Temp:Abs-Feuchte:Windchill:Wind:
Aussen-T/F 576 17-02-2011 19:13:02 -0.4 C 3.68 g/m*3 -0.4 C 0 km/h
577 17-02-2011 19:25:02 -0.4 C 3.72 g/m*3 -0.4 C 0 km/h
578 17-02-2011 19:37:02 -0.9 C 3.6 g/m*3 -0.9 C 0 km/h
579 17-02-2011 19:49:02 -0.8 C 3.71 g/m*3 -0.8 C 0 km/h
580 17-02-2011 20:01:02 -0.2 C 3.97 g/m*3 -0.2 C 0 km/h
581 17-02-2011 20:13:02 0.2 C 4.08 g/m*3 0.2 C 0 km/h
582 17-02-2011 20:25:02 0.2 C 4.08 g/m*3 0.2 C 0 km/h
583 17-02-2011 20:37:02 0.3 C 4.06 g/m*3 0.3 C 0 km/h
584 17-02-2011 20:49:01 0.5 C 4.06 g/m*3 0.5 C 0 km/h
585 17-02-2011 21:02:02 0.5 C 4.06 g/m*3 0.5 C 0 km/h
586 17-02-2011 21:14:03 0.8 C 4.1 g/m*3 0.8 C 0 km/h
587 17-02-2011 21:26:03 1 C 4.05 g/m*3 1 C 0 km/h
588 17-02-2011 21:38:03 1.1 C 3.97 g/m*3 1.1 C 0 km/h
589 17-02-2011 21:50:03 1.3 C 3.92 g/m*3 1.3 C 0 km/h
590 17-02-2011 22:02:03 1.3 C 3.87 g/m*3 1.3 C 0 km/h
591 17-02-2011 22:14:03 1.3 C 3.81 g/m*3 1.3 C 0 km/h
592 17-02-2011 22:26:03 1.3 C 3.81 g/m*3 1.3 C 0 km/h
593 17-02-2011 22:38:03 1.3 C 3.81 g/m*3 1.3 C 0 km/h
594 17-02-2011 22:50:03 1.3 C 3.81 g/m*3 1.3 C 0 km/h
595 17-02-2011 23:02:03 1.3 C 3.81 g/m*3 1.3 C 0 km/h
596 17-02-2011 23:14:03 1.4 C 3.79 g/m*3 1.4 C 0 km/h
597 17-02-2011 23:26:03 1.4 C 3.79 g/m*3 1.4 C 0 km/h
598 17-02-2011 23:38:03 1.4 C 3.84 g/m*3 1.4 C 0 km/h
599 17-02-2011 23:50:03 1.3 C 3.81 g/m*3 1.3 C 0 km/h
600 18-02-2011 00:02:03 1.3 C 3.81 g/m*3 1.3 C 0 km/h
Sensor: Nr:Datum:Temp:Abs-Feuchte:Windchill:Wind:
Aussen-T/F 601 18-02-2011 00:14:03 1.4 C 3.84 g/m*3 1.4 C 0 km/h
602 18-02-2011 00:26:03 1.3 C 3.81 g/m*3 1.3 C 0 km/h
603 18-02-2011 00:38:03 1.2 C 3.84 g/m*3 1.2 C 0 km/h
604 18-02-2011 00:50:03 1.2 C 3.84 g/m*3 1.2 C 0 km/h
605 18-02-2011 01:02:03 1.3 C 3.87 g/m*3 1.3 C 0 km/h
606 18-02-2011 01:14:03 1.2 C 3.79 g/m*3 1.2 C 0 km/h
607 18-02-2011 01:26:04 1.2 C 3.79 g/m*3 1.2 C 0 km/h
608 18-02-2011 01:38:04 1.2 C 3.79 g/m*3 1.2 C 0 km/h
609 18-02-2011 01:50:04 1.2 C 3.79 g/m*3 1.2 C 0 km/h
610 18-02-2011 02:02:04 1.2 C 3.84 g/m*3 1.2 C 0 km/h
611 18-02-2011 02:14:04 1.3 C 3.92 g/m*3 1.3 C 0 km/h
612 18-02-2011 02:26:04 1.2 C 3.89 g/m*3 1.2 C 0 km/h
613 18-02-2011 02:38:04 1.2 C 3.89 g/m*3 1.2 C 0 km/h
614 18-02-2011 02:50:04 1.2 C 3.89 g/m*3 1.2 C 0 km/h
615 18-02-2011 03:02:04 1.2 C 3.89 g/m*3 1.2 C 0 km/h
616 18-02-2011 03:14:04 1.2 C 3.89 g/m*3 1.2 C 0 km/h
617 18-02-2011 03:26:04 1.3 C 3.87 g/m*3 1.3 C 0 km/h
618 18-02-2011 03:38:04 1.3 C 3.87 g/m*3 1.3 C 0 km/h
619 18-02-2011 03:50:04 1.3 C 3.81 g/m*3 1.3 C 0 km/h
620 18-02-2011 04:02:04 1.3 C 3.87 g/m*3 1.3 C 0 km/h
621 18-02-2011 04:14:04 1.3 C 3.87 g/m*3 1.3 C 0 km/h
622 18-02-2011 04:26:04 1.3 C 3.81 g/m*3 1.3 C 0 km/h
623 18-02-2011 04:38:04 1.3 C 3.81 g/m*3 1.3 C 0 km/h
624 18-02-2011 04:50:04 1.3 C 3.81 g/m*3 1.3 C 0 km/h
625 18-02-2011 05:02:04 1.2 C 3.79 g/m*3 1.2 C 0 km/h
Sensor: Nr:Datum:Temp:Abs-Feuchte:Windchill:Wind:
Aussen-T/F 626 18-02-2011 05:14:04 1.2 C 3.79 g/m*3 1.2 C 0 km/h
627 18-02-2011 05:26:04 1.2 C 3.84 g/m*3 1.2 C 0 km/h
628 18-02-2011 05:38:05 1.2 C 3.84 g/m*3 1.2 C 0 km/h
629 18-02-2011 05:50:05 1.1 C 3.87 g/m*3 1.1 C 0 km/h
630 18-02-2011 06:02:05 1.1 C 3.87 g/m*3 1.1 C 0 km/h
631 18-02-2011 06:14:05 1.2 C 3.89 g/m*3 1.2 C 0 km/h
632 18-02-2011 06:26:05 1.2 C 3.95 g/m*3 1.2 C 0 km/h
633 18-02-2011 06:38:05 1.2 C 3.89 g/m*3 1.2 C 0 km/h
634 18-02-2011 06:50:05 1.2 C 3.89 g/m*3 1.2 C 0 km/h
635 18-02-2011 07:02:05 1.3 C 3.92 g/m*3 1.3 C 0 km/h
636 18-02-2011 07:14:05 1.2 C 3.95 g/m*3 1.2 C 0 km/h
637 18-02-2011 07:26:05 1.2 C 3.95 g/m*3 1.2 C 0 km/h
638 18-02-2011 07:38:02 1.3 C 3.92 g/m*3 1.3 C 0 km/h
639 18-02-2011 07:50:02 1.2 C 3.89 g/m*3 1.2 C 0 km/h
640 18-02-2011 08:02:03 1.4 C 3.95 g/m*3 1.4 C 0 km/h
641 18-02-2011 08:14:03 1.4 C 4 g/m*3 1.4 C 0 km/h
642 18-02-2011 08:26:02 1.5 C 3.97 g/m*3 1.5 C 0 km/h
643 18-02-2011 08:38:03 1.6 C 4 g/m*3 1.6 C 0 km/h
644 18-02-2011 08:50:02 1.7 C 4.03 g/m*3 1.7 C 0 km/h
645 18-02-2011 09:02:02 1.8 C 4.06 g/m*3 1.8 C 0 km/h
646 18-02-2011 09:14:02 2 C 3.95 g/m*3 2 C 0 km/h
647 18-02-2011 09:26:01 2.2 C 3.94 g/m*3 2.2 C 0 km/h
648 18-02-2011 09:38:02 2.3 C 3.91 g/m*3 2.3 C 0 km/h
649 18-02-2011 09:50:02 2.3 C 3.91 g/m*3 2.3 C 0 km/h
650 18-02-2011 10:02:02 2.5 C 3.97 g/m*3 2.5 C 0 km/h
Sensor: Nr:Datum:Temp:Abs-Feuchte:Windchill:Wind:
Aussen-T/F 651 18-02-2011 10:14:02 2.4 C 3.88 g/m*3 2.4 C 0 km/h
652 18-02-2011 10:26:02 2.5 C 3.91 g/m*3 2.5 C 0 km/h
653 18-02-2011 10:38:02 2.5 C 3.97 g/m*3 2.5 C 0 km/h
654 18-02-2011 10:50:02 2.7 C 4.02 g/m*3 2.7 C 0 km/h
655 18-02-2011 11:02:01 2.8 C 4.05 g/m*3 2.8 C 0 km/h
656 18-02-2011 11:14:01 2.8 C 3.99 g/m*3 2.8 C 0 km/h
657 18-02-2011 11:26:02 3 C 3.98 g/m*3 3 C 0 km/h
658 18-02-2011 11:38:02 3 C 3.98 g/m*3 3 C 0 km/h
659 18-02-2011 11:50:02 3 C 3.98 g/m*3 3 C 0 km/h
660 18-02-2011 12:02:02 3.1 C 4.01 g/m*3 3.1 C 0 km/h
661 18-02-2011 12:14:02 3.3 C 4.06 g/m*3 3.3 C 0 km/h
662 18-02-2011 12:26:02 3.2 C 4.04 g/m*3 3.2 C 0 km/h
663 18-02-2011 12:38:02 3.2 C 4.04 g/m*3 3.2 C 0 km/h
664 18-02-2011 12:50:02 3.1 C 4.01 g/m*3 3.1 C 0 km/h
665 18-02-2011 13:02:02 3.2 C 4.1 g/m*3 3.2 C 0 km/h
666 18-02-2011 13:14:02 3.2 C 4.04 g/m*3 3.2 C 0 km/h
667 18-02-2011 13:26:01 3.5 C 4.18 g/m*3 3.5 C 0 km/h
668 18-02-2011 13:38:02 3.4 C 4.09 g/m*3 3.4 C 0 km/h
669 18-02-2011 13:50:02 3.6 C 4.09 g/m*3 3.6 C 0 km/h
670 18-02-2011 14:02:02 3.4 C 4.09 g/m*3 3.4 C 0 km/h
671 18-02-2011 14:14:03 3.7 C 4.18 g/m*3 3.7 C 0 km/h
672 18-02-2011 14:26:01 3.6 C 4.15 g/m*3 3.6 C 0 km/h
673 18-02-2011 14:38:02 3.6 C 4.15 g/m*3 3.6 C 0 km/h
674 18-02-2011 14:50:01 3.5 C 4.18 g/m*3 3.5 C 0 km/h
675 18-02-2011 15:02:02 3.7 C 4.24 g/m*3 3.7 C 0 km/h
Sensor: Nr:Datum:Temp:Abs-Feuchte:Windchill:Wind:
Aussen-T/F 676 18-02-2011 15:14:02 3.8 C 4.2 g/m*3 3.8 C 0 km/h
677 18-02-2011 15:26:02 3.6 C 4.09 g/m*3 3.6 C 0 km/h
678 18-02-2011 15:38:02 3.6 C 4.09 g/m*3 3.6 C 0 km/h
679 18-02-2011 15:50:02 3.6 C 4.15 g/m*3 3.6 C 0 km/h
680 18-02-2011 16:02:01 3.6 C 4.15 g/m*3 3.6 C 0 km/h
681 18-02-2011 16:14:01 3.5 C 4.18 g/m*3 3.5 C 0 km/h
682 18-02-2011 16:26:02 3.4 C 4.15 g/m*3 3.4 C 0 km/h
683 18-02-2011 16:38:01 3.2 C 4.16 g/m*3 3.2 C 0 km/h
684 18-02-2011 16:50:03 3.1 C 4.19 g/m*3 3.1 C 0 km/h
685 18-02-2011 17:02:02 3 C 4.22 g/m*3 3 C 0 km/h
686 18-02-2011 17:14:02 2.9 C 4.25 g/m*3 2.9 C 0 km/h
687 18-02-2011 17:26:02 2.9 C 4.25 g/m*3 2.9 C 0 km/h
688 18-02-2011 17:38:03 2.9 C 4.31 g/m*3 2.9 C 0 km/h
689 18-02-2011 17:50:02 2.8 C 4.34 g/m*3 2.8 C 0 km/h
690 18-02-2011 18:02:02 2.8 C 4.34 g/m*3 2.8 C 0 km/h
691 18-02-2011 18:14:02 2.8 C 4.4 g/m*3 2.8 C 0 km/h
692 18-02-2011 18:26:02 2.7 C 4.37 g/m*3 2.7 C 0 km/h
693 18-02-2011 18:38:02 2.7 C 4.43 g/m*3 2.7 C 0 km/h
694 18-02-2011 18:50:02 2.6 C 4.34 g/m*3 2.6 C 0 km/h
695 18-02-2011 19:02:01 2.6 C 4.4 g/m*3 2.6 C 0 km/h
696 18-02-2011 19:14:01 2.7 C 4.43 g/m*3 2.7 C 0 km/h
697 18-02-2011 19:26:02 2.6 C 4.4 g/m*3 2.6 C 0 km/h
698 18-02-2011 19:38:01 2.7 C 4.49 g/m*3 2.7 C 0 km/h
699 18-02-2011 19:50:02 2.6 C 4.46 g/m*3 2.6 C 0 km/h
700 18-02-2011 20:02:01 2.5 C 4.43 g/m*3 2.5 C 0 km/h
Sensor: Nr:Datum:Temp:Abs-Feuchte:Windchill:Wind:
Aussen-T/F 701 18-02-2011 20:14:01 2.5 C 4.43 g/m*3 2.5 C 0 km/h
702 18-02-2011 20:26:01 2.5 C 4.43 g/m*3 2.5 C 0 km/h
703 18-02-2011 20:38:02 2.5 C 4.48 g/m*3 2.5 C 0 km/h
704 18-02-2011 20:50:02 2.4 C 4.45 g/m*3 2.4 C 0 km/h
705 18-02-2011 21:02:02 2.4 C 4.51 g/m*3 2.4 C 0 km/h
706 18-02-2011 21:14:02 2.4 C 4.51 g/m*3 2.4 C 0 km/h
707 18-02-2011 21:26:02 2.4 C 4.51 g/m*3 2.4 C 0 km/h
708 18-02-2011 21:38:02 2.4 C 4.51 g/m*3 2.4 C 0 km/h
709 18-02-2011 21:51:04 2.3 C 4.48 g/m*3 2.3 C 0 km/h
710 18-02-2011 22:03:04 2.3 C 4.48 g/m*3 2.3 C 0 km/h
711 18-02-2011 22:15:04 2.3 C 4.48 g/m*3 2.3 C 0 km/h
712 18-02-2011 22:27:04 2.2 C 4.45 g/m*3 2.2 C 0 km/h
713 18-02-2011 22:39:04 2.2 C 4.51 g/m*3 2.2 C 0 km/h
714 18-02-2011 22:51:04 2.2 C 4.51 g/m*3 2.2 C 0 km/h
715 18-02-2011 23:03:04 2.3 C 4.54 g/m*3 2.3 C 0 km/h
716 18-02-2011 23:15:04 2.2 C 4.56 g/m*3 2.2 C 0 km/h
717 18-02-2011 23:27:04 2.2 C 4.56 g/m*3 2.2 C 0 km/h
718 18-02-2011 23:39:04 2.2 C 4.56 g/m*3 2.2 C 0 km/h
719 18-02-2011 23:51:04 2.2 C 4.56 g/m*3 2.2 C 0 km/h
720 19-02-2011 00:03:04 2.1 C 4.53 g/m*3 2.1 C 0 km/h
721 19-02-2011 00:15:04 2.1 C 4.53 g/m*3 2.1 C 0 km/h
722 19-02-2011 00:27:04 2.2 C 4.56 g/m*3 2.2 C 0 km/h
723 19-02-2011 00:39:04 2.2 C 4.62 g/m*3 2.2 C 0 km/h
724 19-02-2011 00:51:04 2.2 C 4.62 g/m*3 2.2 C 0 km/h
725 19-02-2011 01:03:04 2.1 C 4.59 g/m*3 2.1 C 0 km/h
Sensor: Nr:Datum:Temp:Abs-Feuchte:Windchill:Wind:
Aussen-T/F 726 19-02-2011 01:15:05 2.1 C 4.59 g/m*3 2.1 C 0 km/h
727 19-02-2011 01:27:05 2.1 C 4.59 g/m*3 2.1 C 0 km/h
728 19-02-2011 01:39:05 2.1 C 4.59 g/m*3 2.1 C 0 km/h
729 19-02-2011 01:51:05 2 C 4.56 g/m*3 2 C 0 km/h
730 19-02-2011 02:03:05 2 C 4.56 g/m*3 2 C 0 km/h
731 19-02-2011 02:15:05 2 C 4.56 g/m*3 2 C 0 km/h
732 19-02-2011 02:27:05 1.9 C 4.58 g/m*3 1.9 C 0 km/h
733 19-02-2011 02:39:05 2 C 4.56 g/m*3 2 C 0 km/h
734 19-02-2011 02:51:05 2 C 4.56 g/m*3 2 C 0 km/h
735 19-02-2011 03:03:05 1.9 C 4.58 g/m*3 1.9 C 0 km/h
736 19-02-2011 03:15:05 1.9 C 4.58 g/m*3 1.9 C 0 km/h
737 19-02-2011 03:27:05 2 C 4.61 g/m*3 2 C 0 km/h
738 19-02-2011 03:39:05 2 C 4.61 g/m*3 2 C 0 km/h
739 19-02-2011 03:51:05 1.9 C 4.58 g/m*3 1.9 C 0 km/h
740 19-02-2011 04:03:05 1.9 C 4.64 g/m*3 1.9 C 0 km/h
741 19-02-2011 04:15:05 1.9 C 4.64 g/m*3 1.9 C 0 km/h
742 19-02-2011 04:27:05 1.8 C 4.6 g/m*3 1.8 C 0 km/h
743 19-02-2011 04:39:05 1.9 C 4.64 g/m*3 1.9 C 0 km/h
744 19-02-2011 04:51:05 1.8 C 4.6 g/m*3 1.8 C 0 km/h
745 19-02-2011 05:03:05 1.8 C 4.6 g/m*3 1.8 C 0 km/h
746 19-02-2011 05:15:05 1.8 C 4.6 g/m*3 1.8 C 0 km/h
747 19-02-2011 05:27:06 1.9 C 4.58 g/m*3 1.9 C 0 km/h
748 19-02-2011 05:39:06 1.9 C 4.53 g/m*3 1.9 C 0 km/h
749 19-02-2011 05:51:06 2 C 4.39 g/m*3 2 C 0 km/h
750 19-02-2011 06:03:06 2 C 4.39 g/m*3 2 C 0 km/h
Sensor: Nr:Datum:Temp:Abs-Feuchte:Windchill:Wind:
Aussen-T/F 751 19-02-2011 06:15:06 1.8 C 4.33 g/m*3 1.8 C 0 km/h
752 19-02-2011 06:27:06 1.7 C 4.36 g/m*3 1.7 C 0 km/h
753 19-02-2011 06:39:06 1.7 C 4.41 g/m*3 1.7 C 0 km/h
754 19-02-2011 06:51:06 1.8 C 4.44 g/m*3 1.8 C 0 km/h
755 19-02-2011 07:03:06 1.8 C 4.39 g/m*3 1.8 C 0 km/h
756 19-02-2011 07:15:06 1.7 C 4.36 g/m*3 1.7 C 0 km/h
757 19-02-2011 07:27:06 1.6 C 4.33 g/m*3 1.6 C 0 km/h
758 19-02-2011 07:39:06 1.6 C 4.38 g/m*3 1.6 C 0 km/h
759 19-02-2011 07:51:06 1.7 C 4.36 g/m*3 1.7 C 0 km/h
760 19-02-2011 08:03:06 1.7 C 4.36 g/m*3 1.7 C 0 km/h
761 19-02-2011 08:15:06 1.7 C 4.3 g/m*3 1.7 C 0 km/h
762 19-02-2011 08:27:06 1.8 C 4.28 g/m*3 1.8 C 0 km/h
763 19-02-2011 08:39:06 1.8 C 4.22 g/m*3 1.8 C 0 km/h
764 19-02-2011 08:51:02 1.9 C 4.25 g/m*3 1.9 C 0 km/h
765 19-02-2011 09:03:02 2 C 4.17 g/m*3 2 C 0 km/h
766 19-02-2011 09:15:02 2 C 4.11 g/m*3 2 C 0 km/h
767 19-02-2011 09:27:02 2.1 C 4.08 g/m*3 2.1 C 0 km/h
768 19-02-2011 09:39:02 2.2 C 4.11 g/m*3 2.2 C 0 km/h
769 19-02-2011 09:51:02 2.1 C 4.08 g/m*3 2.1 C 0 km/h
770 19-02-2011 10:03:02 2.2 C 4.11 g/m*3 2.2 C 0 km/h
771 19-02-2011 10:15:02 2.5 C 4.14 g/m*3 2.5 C 0 km/h
772 19-02-2011 10:27:02 2.8 C 4.16 g/m*3 2.8 C 0 km/h
773 19-02-2011 10:39:02 3.2 C 4.16 g/m*3 3.2 C 0 km/h
774 19-02-2011 10:51:02 3.4 C 4.15 g/m*3 3.4 C 0 km/h
775 19-02-2011 11:03:02 3.4 C 4.09 g/m*3 3.4 C 0 km/h
Sensor: Nr:Datum:Temp:Abs-Feuchte:Windchill:Wind:
Aussen-T/F 776 19-02-2011 11:15:02 3.8 C 4.14 g/m*3 3.8 C 0 km/h
777 19-02-2011 11:27:02 3.8 C 4.08 g/m*3 3.8 C 0 km/h
778 19-02-2011 11:39:02 4 C 4.01 g/m*3 4 C 0 km/h
779 19-02-2011 11:51:02 4.1 C 3.9 g/m*3 4.1 C 0 km/h
780 19-02-2011 12:03:02 4.4 C 3.98 g/m*3 4.4 C 0 km/h
781 19-02-2011 12:15:02 4.9 C 4.05 g/m*3 4.9 C 0 km/h
782 19-02-2011 12:27:03 5.4 C 3.98 g/m*3 5.4 C 0 km/h
783 19-02-2011 12:39:01 5.3 C 3.88 g/m*3 5.3 C 0 km/h
784 19-02-2011 12:51:02 4.7 C 4 g/m*3 4.7 C 0 km/h
785 19-02-2011 13:03:01 4.7 C 4.06 g/m*3 4.7 C 0 km/h
786 19-02-2011 13:15:01 4.9 C 4.05 g/m*3 4.9 C 0 km/h
787 19-02-2011 13:27:01 5.1 C 4.04 g/m*3 5.1 C 0 km/h
788 19-02-2011 13:39:02 5.2 C 4.06 g/m*3 5.2 C 0 km/h
789 19-02-2011 13:51:02 5.8 C 4.08 g/m*3 5.8 C 0 km/h
790 19-02-2011 14:03:02 5.2 C 3.99 g/m*3 5.2 C 0 km/h
791 19-02-2011 14:15:02 4.8 C 3.96 g/m*3 4.8 C 0 km/h
792 19-02-2011 14:27:02 4.6 C 4.04 g/m*3 4.6 C 0 km/h
793 19-02-2011 14:39:02 4.5 C 4.01 g/m*3 4.5 C 0 km/h
794 19-02-2011 14:51:02 4.6 C 4.04 g/m*3 4.6 C 0 km/h
795 19-02-2011 15:03:02 4.7 C 4.06 g/m*3 4.7 C 0 km/h
796 19-02-2011 15:15:02 4.6 C 4.1 g/m*3 4.6 C 0 km/h
797 19-02-2011 15:27:02 4.6 C 4.04 g/m*3 4.6 C 0 km/h
798 19-02-2011 15:39:02 4.5 C 4.01 g/m*3 4.5 C 0 km/h
799 19-02-2011 15:51:02 4.9 C 4.12 g/m*3 4.9 C 0 km/h
800 19-02-2011 16:03:02 4.8 C 4.09 g/m*3 4.8 C 0 km/h
Sensor: Nr:Datum:Temp:Abs-Feuchte:Windchill:Wind:
Aussen-T/F 801 19-02-2011 16:15:03 4.6 C 4.1 g/m*3 4.6 C 0 km/h
802 19-02-2011 16:27:03 4.3 C 4.15 g/m*3 4.3 C 0 km/h
803 19-02-2011 16:39:02 4.2 C 4.19 g/m*3 4.2 C 0 km/h
804 19-02-2011 16:51:02 4.1 C 4.16 g/m*3 4.1 C 0 km/h
805 19-02-2011 17:03:02 4.1 C 4.22 g/m*3 4.1 C 0 km/h
806 19-02-2011 17:15:02 3.8 C 4.2 g/m*3 3.8 C 0 km/h
807 19-02-2011 17:27:02 3.6 C 4.27 g/m*3 3.6 C 0 km/h
808 19-02-2011 17:39:02 3.6 C 4.33 g/m*3 3.6 C 0 km/h
809 19-02-2011 17:51:02 3.6 C 4.33 g/m*3 3.6 C 0 km/h
810 19-02-2011 18:03:02 3.3 C 4.31 g/m*3 3.3 C 0 km/h
811 19-02-2011 18:15:02 3.1 C 4.25 g/m*3 3.1 C 0 km/h
812 19-02-2011 18:27:02 3 C 4.28 g/m*3 3 C 0 km/h
813 19-02-2011 18:39:01 2.9 C 4.37 g/m*3 2.9 C 0 km/h
814 19-02-2011 18:51:02 2.8 C 4.34 g/m*3 2.8 C 0 km/h
815 19-02-2011 19:03:01 2.8 C 4.34 g/m*3 2.8 C 0 km/h
816 19-02-2011 19:15:01 3 C 4.4 g/m*3 3 C 0 km/h
817 19-02-2011 19:27:01 2.9 C 4.37 g/m*3 2.9 C 0 km/h
818 19-02-2011 19:39:02 2.9 C 4.37 g/m*3 2.9 C 0 km/h
819 19-02-2011 19:51:02 2.9 C 4.37 g/m*3 2.9 C 0 km/h
820 19-02-2011 20:03:02 2.6 C 4.28 g/m*3 2.6 C 0 km/h
821 19-02-2011 20:15:01 2.5 C 4.25 g/m*3 2.5 C 0 km/h
822 19-02-2011 20:27:01 2.4 C 4.23 g/m*3 2.4 C 0 km/h
823 19-02-2011 20:39:02 1.6 C 4.11 g/m*3 1.6 C 0 km/h
824 19-02-2011 20:51:02 1.6 C 4.27 g/m*3 1.6 C 0 km/h
825 19-02-2011 21:03:02 2 C 4.45 g/m*3 2 C 0 km/h
Sensor: Nr:Datum:Temp:Abs-Feuchte:Windchill:Wind:
Aussen-T/F 826 19-02-2011 21:15:01 2.3 C 4.48 g/m*3 2.3 C 0 km/h
827 19-02-2011 21:27:01 2.4 C 4.4 g/m*3 2.4 C 0 km/h
828 19-02-2011 21:39:02 2.5 C 4.37 g/m*3 2.5 C 0 km/h
829 19-02-2011 21:51:02 2.6 C 4.28 g/m*3 2.6 C 0 km/h
830 19-02-2011 22:03:02 2.5 C 4.25 g/m*3 2.5 C 0 km/h
831 19-02-2011 22:15:02 2.4 C 4.17 g/m*3 2.4 C 0 km/h
832 19-02-2011 22:27:02 2.2 C 4.11 g/m*3 2.2 C 0 km/h
833 19-02-2011 22:40:03 1.9 C 4.14 g/m*3 1.9 C 0 km/h
834 19-02-2011 22:52:03 1.8 C 4.11 g/m*3 1.8 C 0 km/h
835 19-02-2011 23:04:03 1.8 C 4.11 g/m*3 1.8 C 0 km/h
836 19-02-2011 23:16:03 1.7 C 4.14 g/m*3 1.7 C 0 km/h
837 19-02-2011 23:28:03 1.8 C 4.17 g/m*3 1.8 C 0 km/h
838 19-02-2011 23:40:03 1.9 C 4.14 g/m*3 1.9 C 0 km/h
839 19-02-2011 23:52:03 1.8 C 4.06 g/m*3 1.8 C 0 km/h
840 20-02-2011 00:04:03 1.7 C 4.03 g/m*3 1.7 C 0 km/h
841 20-02-2011 00:16:03 1.7 C 3.97 g/m*3 1.7 C 0 km/h
842 20-02-2011 00:28:03 1.6 C 3.89 g/m*3 1.6 C 0 km/h
843 20-02-2011 00:40:04 1.5 C 3.87 g/m*3 1.5 C 0 km/h
844 20-02-2011 00:52:04 1.4 C 3.84 g/m*3 1.4 C 0 km/h
845 20-02-2011 01:04:04 1.3 C 3.81 g/m*3 1.3 C 0 km/h
846 20-02-2011 01:16:04 1.1 C 3.76 g/m*3 1.1 C 0 km/h
847 20-02-2011 01:28:04 0.9 C 3.81 g/m*3 0.9 C 0 km/h
848 20-02-2011 01:40:04 0.7 C 3.81 g/m*3 0.7 C 0 km/h
849 20-02-2011 01:52:04 0.5 C 3.76 g/m*3 0.5 C 0 km/h
850 20-02-2011 02:04:04 0.5 C 3.81 g/m*3 0.5 C 0 km/h
Sensor: Nr:Datum:Temp:Abs-Feuchte:Windchill:Wind:
Aussen-T/F 851 20-02-2011 02:16:04 0.5 C 3.81 g/m*3 0.5 C 0 km/h
852 20-02-2011 02:28:04 0.5 C 3.81 g/m*3 0.5 C 0 km/h
853 20-02-2011 02:40:04 0.6 C 3.84 g/m*3 0.6 C 0 km/h
854 20-02-2011 02:52:04 0.7 C 3.81 g/m*3 0.7 C 0 km/h
855 20-02-2011 03:04:04 0.8 C 3.79 g/m*3 0.8 C 0 km/h
856 20-02-2011 03:16:04 0.8 C 3.74 g/m*3 0.8 C 0 km/h
857 20-02-2011 03:28:04 0.7 C 3.71 g/m*3 0.7 C 0 km/h
858 20-02-2011 03:40:04 0.6 C 3.64 g/m*3 0.6 C 0 km/h
859 20-02-2011 03:52:04 0.6 C 3.64 g/m*3 0.6 C 0 km/h
860 20-02-2011 04:04:04 0.6 C 3.64 g/m*3 0.6 C 0 km/h
861 20-02-2011 04:16:04 0.5 C 3.61 g/m*3 0.5 C 0 km/h
862 20-02-2011 04:28:04 0.5 C 3.61 g/m*3 0.5 C 0 km/h
863 20-02-2011 04:40:05 0.5 C 3.61 g/m*3 0.5 C 0 km/h
864 20-02-2011 04:52:05 0.5 C 3.61 g/m*3 0.5 C 0 km/h
865 20-02-2011 05:04:05 0.5 C 3.56 g/m*3 0.5 C 0 km/h
866 20-02-2011 05:16:05 0.4 C 3.59 g/m*3 0.4 C 0 km/h
867 20-02-2011 05:28:05 0.3 C 3.56 g/m*3 0.3 C 0 km/h
868 20-02-2011 05:40:05 0.3 C 3.56 g/m*3 0.3 C 0 km/h
869 20-02-2011 05:52:05 0.2 C 3.54 g/m*3 0.2 C 0 km/h
870 20-02-2011 06:04:05 0.3 C 3.51 g/m*3 0.3 C 0 km/h
871 20-02-2011 06:16:05 0.3 C 3.51 g/m*3 0.3 C 0 km/h
872 20-02-2011 06:28:05 0.4 C 3.54 g/m*3 0.4 C 0 km/h
873 20-02-2011 06:40:05 0.4 C 3.54 g/m*3 0.4 C 0 km/h
874 20-02-2011 06:52:05 0.4 C 3.54 g/m*3 0.4 C 0 km/h
875 20-02-2011 07:04:05 0.4 C 3.54 g/m*3 0.4 C 0 km/h
Sensor: Nr:Datum:Temp:Abs-Feuchte:Windchill:Wind:
Aussen-T/F 876 20-02-2011 07:16:05 0.5 C 3.51 g/m*3 0.5 C 0 km/h
877 20-02-2011 07:28:05 0.4 C 3.49 g/m*3 0.4 C 0 km/h
878 20-02-2011 07:40:05 0.4 C 3.44 g/m*3 0.4 C 0 km/h
879 20-02-2011 07:52:05 0.4 C 3.39 g/m*3 0.4 C 0 km/h
880 20-02-2011 08:04:05 0.5 C 3.41 g/m*3 0.5 C 0 km/h
881 20-02-2011 08:16:05 0.4 C 3.39 g/m*3 0.4 C 0 km/h
882 20-02-2011 08:28:05 0.5 C 3.36 g/m*3 0.5 C 0 km/h
883 20-02-2011 08:40:05 0.6 C 3.38 g/m*3 0.6 C 0 km/h
884 20-02-2011 08:52:06 0.7 C 3.36 g/m*3 0.7 C 0 km/h
885 20-02-2011 09:04:06 0.7 C 3.36 g/m*3 0.7 C 0 km/h
886 20-02-2011 09:16:06 0.9 C 3.35 g/m*3 0.9 C 0 km/h
887 20-02-2011 09:28:06 1.2 C 3.31 g/m*3 1.2 C 0 km/h
888 20-02-2011 09:40:03 1.2 C 3.26 g/m*3 1.2 C 0 km/h
889 20-02-2011 09:52:01 1.5 C 3.28 g/m*3 1.5 C 0 km/h
890 20-02-2011 10:04:02 1.5 C 3.22 g/m*3 1.5 C 0 km/h
891 20-02-2011 10:16:02 1.6 C 3.24 g/m*3 1.6 C 0 km/h
892 20-02-2011 10:28:02 1.6 C 3.19 g/m*3 1.6 C 0 km/h
893 20-02-2011 10:40:01 1.7 C 3.21 g/m*3 1.7 C 0 km/h
894 20-02-2011 10:52:02 1.7 C 3.16 g/m*3 1.7 C 0 km/h
895 20-02-2011 11:04:01 1.8 C 3.12 g/m*3 1.8 C 0 km/h
896 20-02-2011 11:16:02 2.3 C 3.23 g/m*3 2.3 C 0 km/h
897 20-02-2011 11:28:02 2 C 3.11 g/m*3 2 C 0 km/h
898 20-02-2011 11:40:01 2.4 C 3.2 g/m*3 2.4 C 0 km/h
899 20-02-2011 11:52:03 2.2 C 3.1 g/m*3 2.2 C 0 km/h
900 20-02-2011 12:04:02 2.5 C 3.16 g/m*3 2.5 C 0 km/h
Sensor: Nr:Datum:Temp:Abs-Feuchte:Windchill:Wind:
Aussen-T/F 901 20-02-2011 12:16:02 2.4 C 3.08 g/m*3 2.4 C 0 km/h
902 20-02-2011 12:28:02 2.5 C 3.1 g/m*3 2.5 C 0 km/h
903 20-02-2011 12:40:02 2.5 C 3.1 g/m*3 2.5 C 0 km/h
904 20-02-2011 12:52:02 2.2 C 3.04 g/m*3 2.2 C 0 km/h
905 20-02-2011 13:04:01 2.3 C 3.06 g/m*3 2.3 C 0 km/h
906 20-02-2011 13:16:02 2.2 C 3.04 g/m*3 2.2 C 0 km/h
907 20-02-2011 13:28:02 2.3 C 3.06 g/m*3 2.3 C 0 km/h
908 20-02-2011 13:40:02 2.1 C 3.02 g/m*3 2.1 C 0 km/h
909 20-02-2011 13:52:01 2.2 C 3.04 g/m*3 2.2 C 0 km/h
910 20-02-2011 14:04:02 2.2 C 3.04 g/m*3 2.2 C 0 km/h
911 20-02-2011 14:16:01 2.2 C 2.99 g/m*3 2.2 C 0 km/h
912 20-02-2011 14:28:01 2 C 2.95 g/m*3 2 C 0 km/h
913 20-02-2011 14:40:01 1.9 C 2.98 g/m*3 1.9 C 0 km/h
914 20-02-2011 14:52:01 2.4 C 2.97 g/m*3 2.4 C 0 km/h
915 20-02-2011 15:04:02 2.5 C 2.93 g/m*3 2.5 C 0 km/h
916 20-02-2011 15:16:01 2.6 C 2.89 g/m*3 2.6 C 0 km/h
917 20-02-2011 15:28:01 2.5 C 2.87 g/m*3 2.5 C 0 km/h
918 20-02-2011 15:40:02 2.6 C 2.89 g/m*3 2.6 C 0 km/h
919 20-02-2011 15:52:01 2.2 C 2.82 g/m*3 2.2 C 0 km/h
920 20-02-2011 16:04:02 1.7 C 2.89 g/m*3 1.7 C 0 km/h
921 20-02-2011 16:16:02 1.6 C 2.87 g/m*3 1.6 C 0 km/h
922 20-02-2011 16:28:02 1.3 C 2.91 g/m*3 1.3 C 0 km/h
923 20-02-2011 16:40:01 1.1 C 2.87 g/m*3 1.1 C 0 km/h
924 20-02-2011 16:52:01 1 C 2.91 g/m*3 1 C 0 km/h
925 20-02-2011 17:04:01 1 C 2.96 g/m*3 1 C 0 km/h
Sensor: Nr:Datum:Temp:Abs-Feuchte:Windchill:Wind:
Aussen-T/F 926 20-02-2011 17:16:02 0.7 C 2.9 g/m*3 0.7 C 0 km/h
927 20-02-2011 17:28:02 0.5 C 2.91 g/m*3 0.5 C 0 km/h
928 20-02-2011 17:40:01 0.5 C 2.91 g/m*3 0.5 C 0 km/h
929 20-02-2011 17:52:02 0.3 C 2.87 g/m*3 0.3 C 0 km/h
930 20-02-2011 18:04:01 0.1 C 2.78 g/m*3 0.1 C 0 km/h
931 20-02-2011 18:16:01 0.1 C 2.83 g/m*3 0.1 C 0 km/h
932 20-02-2011 18:28:01 0 C 2.86 g/m*3 0 C 0 km/h
933 20-02-2011 18:40:01 0 C 2.81 g/m*3 0 C 0 km/h
934 20-02-2011 18:52:02 -0.2 C 2.77 g/m*3 -0.2 C 0 km/h
935 20-02-2011 19:04:01 -0.2 C 2.77 g/m*3 -0.2 C 0 km/h
936 20-02-2011 19:16:02 -0.3 C 2.75 g/m*3 -0.3 C 0 km/h
937 20-02-2011 19:28:02 -0.3 C 2.8 g/m*3 -0.3 C 0 km/h
938 20-02-2011 19:40:02 -0.3 C 2.75 g/m*3 -0.3 C 0 km/h
939 20-02-2011 19:52:02 -0.5 C 2.67 g/m*3 -0.5 C 0 km/h
940 20-02-2011 20:04:02 -0.6 C 2.7 g/m*3 -0.6 C 0 km/h
941 20-02-2011 20:16:02 -0.7 C 2.68 g/m*3 -0.7 C 0 km/h
942 20-02-2011 20:28:02 -0.8 C 2.61 g/m*3 -0.8 C 0 km/h
943 20-02-2011 20:40:01 -0.9 C 2.59 g/m*3 -0.9 C 0 km/h
944 20-02-2011 20:52:01 -0.9 C 2.59 g/m*3 -0.9 C 0 km/h
945 20-02-2011 21:04:01 -0.9 C 2.59 g/m*3 -0.9 C 0 km/h
946 20-02-2011 21:16:02 -0.9 C 2.55 g/m*3 -0.9 C 0 km/h
947 20-02-2011 21:28:02 -1.1 C 2.51 g/m*3 -1.1 C 0 km/h
948 20-02-2011 21:40:01 -1.1 C 2.56 g/m*3 -1.1 C 0 km/h
949 20-02-2011 21:53:06 -1.2 C 2.54 g/m*3 -1.2 C 0 km/h
950 20-02-2011 22:05:06 -1.3 C 2.52 g/m*3 -1.3 C 0 km/h
Sensor: Nr:Datum:Temp:Abs-Feuchte:Windchill:Wind:
Aussen-T/F 951 20-02-2011 22:17:06 -1.4 C 2.51 g/m*3 -1.4 C 0 km/h
952 20-02-2011 22:29:06 -1.4 C 2.51 g/m*3 -1.4 C 0 km/h
953 20-02-2011 22:41:06 -1.4 C 2.51 g/m*3 -1.4 C 0 km/h
954 20-02-2011 22:53:06 -1.5 C 2.49 g/m*3 -1.5 C 0 km/h
955 20-02-2011 23:05:06 -1.6 C 2.47 g/m*3 -1.6 C 0 km/h
956 20-02-2011 23:17:07 -1.6 C 2.47 g/m*3 -1.6 C 0 km/h
957 20-02-2011 23:29:07 -1.7 C 2.45 g/m*3 -1.7 C 0 km/h
958 20-02-2011 23:41:07 -1.6 C 2.47 g/m*3 -1.6 C 0 km/h
959 20-02-2011 23:53:07 -1.7 C 2.41 g/m*3 -1.7 C 0 km/h
960 21-02-2011 00:05:07 -1.8 C 2.39 g/m*3 -1.8 C 0 km/h
961 21-02-2011 00:17:07 -1.8 C 2.39 g/m*3 -1.8 C 0 km/h
962 21-02-2011 00:29:07 -1.8 C 2.39 g/m*3 -1.8 C 0 km/h
963 21-02-2011 00:41:07 -1.9 C 2.42 g/m*3 -1.9 C 0 km/h
964 21-02-2011 00:53:07 -1.9 C 2.42 g/m*3 -1.9 C 0 km/h
965 21-02-2011 01:05:07 -1.9 C 2.38 g/m*3 -1.9 C 0 km/h
966 21-02-2011 01:17:07 -2 C 2.32 g/m*3 -2 C 0 km/h
967 21-02-2011 01:29:07 -2 C 2.36 g/m*3 -2 C 0 km/h
968 21-02-2011 01:41:07 -2.1 C 2.34 g/m*3 -2.1 C 0 km/h
969 21-02-2011 01:53:07 -2.1 C 2.34 g/m*3 -2.1 C 0 km/h
970 21-02-2011 02:05:07 -2.1 C 2.34 g/m*3 -2.1 C 0 km/h
971 21-02-2011 02:17:07 -2.2 C 2.33 g/m*3 -2.2 C 0 km/h
972 21-02-2011 02:29:07 -2.3 C 2.31 g/m*3 -2.3 C 0 km/h
973 21-02-2011 02:41:07 -2.3 C 2.31 g/m*3 -2.3 C 0 km/h
974 21-02-2011 02:53:07 -2.3 C 2.31 g/m*3 -2.3 C 0 km/h
975 21-02-2011 03:05:07 -2.3 C 2.31 g/m*3 -2.3 C 0 km/h
Sensor: Nr:Datum:Temp:Abs-Feuchte:Windchill:Wind:
Aussen-T/F 976 21-02-2011 03:17:08 -2.3 C 2.31 g/m*3 -2.3 C 0 km/h
977 21-02-2011 03:29:08 -2.4 C 2.25 g/m*3 -2.4 C 0 km/h
978 21-02-2011 03:41:08 -2.5 C 2.24 g/m*3 -2.5 C 0 km/h
979 21-02-2011 03:53:08 -2.5 C 2.28 g/m*3 -2.5 C 0 km/h
980 21-02-2011 04:05:08 -2.6 C 2.22 g/m*3 -2.6 C 0 km/h
981 21-02-2011 04:17:08 -2.6 C 2.18 g/m*3 -2.6 C 0 km/h
982 21-02-2011 04:29:08 -2.7 C 2.21 g/m*3 -2.7 C 0 km/h
983 21-02-2011 04:41:08 -2.6 C 2.22 g/m*3 -2.6 C 0 km/h
984 21-02-2011 04:53:08 -2.7 C 2.21 g/m*3 -2.7 C 0 km/h
985 21-02-2011 05:05:08 -2.7 C 2.21 g/m*3 -2.7 C 0 km/h
986 21-02-2011 05:17:08 -2.7 C 2.21 g/m*3 -2.7 C 0 km/h
987 21-02-2011 05:29:08 -2.7 C 2.21 g/m*3 -2.7 C 0 km/h
988 21-02-2011 05:41:08 -2.7 C 2.21 g/m*3 -2.7 C 0 km/h
989 21-02-2011 05:53:08 -2.8 C 2.19 g/m*3 -2.8 C 0 km/h
990 21-02-2011 06:05:08 -2.8 C 2.19 g/m*3 -2.8 C 0 km/h
991 21-02-2011 06:17:08 -2.9 C 2.18 g/m*3 -2.9 C 0 km/h
992 21-02-2011 06:29:08 -2.9 C 2.18 g/m*3 -2.9 C 0 km/h
993 21-02-2011 06:41:08 -3 C 2.16 g/m*3 -3 C 0 km/h
994 21-02-2011 06:53:08 -3 C 2.16 g/m*3 -3 C 0 km/h
995 21-02-2011 07:05:08 -3.1 C 2.15 g/m*3 -3.1 C 0 km/h
996 21-02-2011 07:17:02 -3.2 C 2.13 g/m*3 -3.2 C 0 km/h
997 21-02-2011 07:29:02 -3.2 C 2.13 g/m*3 -3.2 C 0 km/h
998 21-02-2011 07:41:02 -3.3 C 2.08 g/m*3 -3.3 C 0 km/h
999 21-02-2011 07:53:02 -3.3 C 2.08 g/m*3 -3.3 C 0 km/h
1000 21-02-2011 08:05:03 -3.3 C 2.08 g/m*3 -3.3 C 0 km/h
Sensor: Nr:Datum:Temp:Abs-Feuchte:Windchill:Wind:
Aussen-T/F 1001 21-02-2011 08:17:02 -3.4 C 2.02 g/m*3 -3.4 C 0 km/h
1002 21-02-2011 08:29:02 -3.3 C 2.08 g/m*3 -3.3 C 0 km/h
1003 21-02-2011 08:41:02 -3.3 C 2.08 g/m*3 -3.3 C 0 km/h
1004 21-02-2011 08:53:01 -3.3 C 2.08 g/m*3 -3.3 C 0 km/h
1005 21-02-2011 09:05:02 -3.2 C 2.05 g/m*3 -3.2 C 0 km/h
1006 21-02-2011 09:17:01 -3.2 C 2.05 g/m*3 -3.2 C 0 km/h
1007 21-02-2011 09:29:01 -3 C 2.08 g/m*3 -3 C 0 km/h
1008 21-02-2011 09:41:02 -2.7 C 2.09 g/m*3 -2.7 C 0 km/h
1009 21-02-2011 09:53:02 -2.5 C 2.08 g/m*3 -2.5 C 0 km/h
1010 21-02-2011 10:05:02 -2.4 C 2.09 g/m*3 -2.4 C 0 km/h
1011 21-02-2011 10:17:02 -2.2 C 2.08 g/m*3 -2.2 C 0 km/h
1012 21-02-2011 10:29:03 -2 C 2.11 g/m*3 -2 C 0 km/h
1013 21-02-2011 10:41:01 -1.6 C 2.12 g/m*3 -1.6 C 0 km/h
1014 21-02-2011 10:53:02 -2 C 2.02 g/m*3 -2 C 0 km/h
1015 21-02-2011 11:05:01 -1.8 C 2.01 g/m*3 -1.8 C 0 km/h
1016 21-02-2011 11:17:01 -1.5 C 2.1 g/m*3 -1.5 C 0 km/h
1017 21-02-2011 11:29:01 -1.1 C 2.11 g/m*3 -1.1 C 0 km/h
1018 21-02-2011 11:41:02 -1.9 C 1.95 g/m*3 -1.9 C 0 km/h
1019 21-02-2011 11:53:02 -1.3 C 2.04 g/m*3 -1.3 C 0 km/h
1020 21-02-2011 12:05:02 -1 C 2.03 g/m*3 -1 C 0 km/h
1021 21-02-2011 12:17:02 -1.2 C 2.05 g/m*3 -1.2 C 0 km/h
1022 21-02-2011 12:29:02 -1.1 C 2.07 g/m*3 -1.1 C 0 km/h
1023 21-02-2011 12:41:02 -1.1 C 2.07 g/m*3 -1.1 C 0 km/h
1024 21-02-2011 12:53:02 -1.3 C 2.04 g/m*3 -1.3 C 0 km/h
1025 21-02-2011 13:05:02 -1.1 C 2.07 g/m*3 -1.1 C 0 km/h
Sensor: Nr:Datum:Temp:Abs-Feuchte:Windchill:Wind:
Aussen-T/F 1026 21-02-2011 13:17:02 -1 C 2.12 g/m*3 -1 C 0 km/h
1027 21-02-2011 13:29:02 -1 C 2.12 g/m*3 -1 C 0 km/h
1028 21-02-2011 13:41:02 -0.7 C 2.17 g/m*3 -0.7 C 0 km/h
1029 21-02-2011 13:53:02 -0.6 C 2.14 g/m*3 -0.6 C 0 km/h
1030 21-02-2011 14:05:02 -0.4 C 2.17 g/m*3 -0.4 C 0 km/h
1031 21-02-2011 14:17:03 -0.2 C 2.2 g/m*3 -0.2 C 0 km/h
1032 21-02-2011 14:29:03 -0.7 C 2.12 g/m*3 -0.7 C 0 km/h
1033 21-02-2011 14:41:02 -0.6 C 2.14 g/m*3 -0.6 C 0 km/h
1034 21-02-2011 14:53:02 -0.4 C 2.22 g/m*3 -0.4 C 0 km/h
1035 21-02-2011 15:05:02 -0.3 C 2.18 g/m*3 -0.3 C 0 km/h
1036 21-02-2011 15:17:02 0 C 2.23 g/m*3 0 C 0 km/h
1037 21-02-2011 15:29:02 -0.2 C 2.2 g/m*3 -0.2 C 0 km/h
1038 21-02-2011 15:41:02 -0.1 C 2.26 g/m*3 -0.1 C 0 km/h
1039 21-02-2011 15:53:02 -0.2 C 2.25 g/m*3 -0.2 C 0 km/h
1040 21-02-2011 16:05:02 -0.6 C 2.18 g/m*3 -0.6 C 0 km/h
1041 21-02-2011 16:17:02 -0.7 C 2.22 g/m*3 -0.7 C 0 km/h
1042 21-02-2011 16:29:02 -0.6 C 2.28 g/m*3 -0.6 C 0 km/h
1043 21-02-2011 16:41:01 -0.6 C 2.28 g/m*3 -0.6 C 0 km/h
1044 21-02-2011 16:53:02 -0.7 C 2.31 g/m*3 -0.7 C 0 km/h
1045 21-02-2011 17:05:01 -0.8 C 2.29 g/m*3 -0.8 C 0 km/h
1046 21-02-2011 17:17:02 -0.9 C 2.28 g/m*3 -0.9 C 0 km/h
1047 21-02-2011 17:29:02 -1 C 2.31 g/m*3 -1 C 0 km/h
1048 21-02-2011 17:41:02 -1.1 C 2.29 g/m*3 -1.1 C 0 km/h
1049 21-02-2011 17:53:02 -1.2 C 2.27 g/m*3 -1.2 C 0 km/h
1050 21-02-2011 18:05:03 -1.1 C 2.33 g/m*3 -1.1 C 0 km/h
Sensor: Nr:Datum:Temp:Abs-Feuchte:Windchill:Wind:
Aussen-T/F 1051 21-02-2011 18:17:02 -1.1 C 2.29 g/m*3 -1.1 C 0 km/h
1052 21-02-2011 18:29:02 -1.2 C 2.27 g/m*3 -1.2 C 0 km/h
1053 21-02-2011 18:41:02 -1.2 C 2.32 g/m*3 -1.2 C 0 km/h
1054 21-02-2011 18:53:01 -1.2 C 2.27 g/m*3 -1.2 C 0 km/h
1055 21-02-2011 19:05:02 -1.2 C 2.27 g/m*3 -1.2 C 0 km/h
1056 21-02-2011 19:17:01 -1.1 C 2.29 g/m*3 -1.1 C 0 km/h
1057 21-02-2011 19:29:01 -1.2 C 2.27 g/m*3 -1.2 C 0 km/h
1058 21-02-2011 19:41:02 -1.1 C 2.29 g/m*3 -1.1 C 0 km/h
1059 21-02-2011 19:53:01 -1.1 C 2.29 g/m*3 -1.1 C 0 km/h
1060 21-02-2011 20:05:02 -1.1 C 2.29 g/m*3 -1.1 C 0 km/h
1061 21-02-2011 20:17:01 -1.1 C 2.29 g/m*3 -1.1 C 0 km/h
1062 21-02-2011 20:29:01 -1.1 C 2.33 g/m*3 -1.1 C 0 km/h
1063 21-02-2011 20:41:02 -1.2 C 2.27 g/m*3 -1.2 C 0 km/h
1064 21-02-2011 20:53:02 -1.1 C 2.29 g/m*3 -1.1 C 0 km/h
1065 21-02-2011 21:05:02 -1.2 C 2.32 g/m*3 -1.2 C 0 km/h
1066 21-02-2011 21:17:01 -1.3 C 2.35 g/m*3 -1.3 C 0 km/h
1067 21-02-2011 21:29:01 -1.4 C 2.29 g/m*3 -1.4 C 0 km/h
1068 21-02-2011 21:41:02 -1.3 C 2.3 g/m*3 -1.3 C 0 km/h
1069 21-02-2011 21:53:02 -1.3 C 2.21 g/m*3 -1.3 C 0 km/h
1070 21-02-2011 22:05:02 -1.5 C 2.18 g/m*3 -1.5 C 0 km/h
1071 21-02-2011 22:17:02 -1.5 C 2.18 g/m*3 -1.5 C 0 km/h
1072 21-02-2011 22:29:02 -1.7 C 2.11 g/m*3 -1.7 C 0 km/h
1073 21-02-2011 22:42:10 -1.9 C 2.12 g/m*3 -1.9 C 0 km/h
1074 21-02-2011 22:54:10 -2 C 2.11 g/m*3 -2 C 0 km/h
1075 21-02-2011 23:06:11 -2.4 C 2.09 g/m*3 -2.4 C 0 km/h
Sensor: Nr:Datum:Temp:Abs-Feuchte:Windchill:Wind:
Aussen-T/F 1076 21-02-2011 23:18:11 -2.6 C 2.1 g/m*3 -2.6 C 0 km/h
1077 21-02-2011 23:30:11 -2.9 C 2.1 g/m*3 -2.9 C 0 km/h
1078 21-02-2011 23:42:11 -3.3 C 2.08 g/m*3 -3.3 C 0 km/h
1079 21-02-2011 23:54:12 -3.7 C 2.09 g/m*3 -3.7 C 0 km/h
1080 22-02-2011 00:06:12 -3.9 C 2.1 g/m*3 -3.9 C 0 km/h
1081 22-02-2011 00:18:12 -3.7 C 2.17 g/m*3 -3.7 C 0 km/h
1082 22-02-2011 00:30:12 -3.6 C 2.11 g/m*3 -3.6 C 0 km/h
1083 22-02-2011 00:42:12 -3.3 C 2.11 g/m*3 -3.3 C 0 km/h
1084 22-02-2011 00:54:12 -3.3 C 2.08 g/m*3 -3.3 C 0 km/h
1085 22-02-2011 01:06:12 -3.1 C 2.11 g/m*3 -3.1 C 0 km/h
1086 22-02-2011 01:18:12 -3.1 C 2.07 g/m*3 -3.1 C 0 km/h
1087 22-02-2011 01:30:13 -3.2 C 2.05 g/m*3 -3.2 C 0 km/h
1088 22-02-2011 01:42:13 -3.3 C 2.04 g/m*3 -3.3 C 0 km/h
1089 22-02-2011 01:54:13 -3.2 C 2.05 g/m*3 -3.2 C 0 km/h
1090 22-02-2011 02:06:13 -3.3 C 2.04 g/m*3 -3.3 C 0 km/h
1091 22-02-2011 02:18:13 -3.3 C 2.04 g/m*3 -3.3 C 0 km/h
1092 22-02-2011 02:30:13 -3.3 C 2 g/m*3 -3.3 C 0 km/h
1093 22-02-2011 02:42:13 -3.3 C 2 g/m*3 -3.3 C 0 km/h
1094 22-02-2011 02:54:13 -3.5 C 2.01 g/m*3 -3.5 C 0 km/h
1095 22-02-2011 03:06:13 -3.7 C 1.98 g/m*3 -3.7 C 0 km/h
1096 22-02-2011 03:18:13 -3.8 C 1.97 g/m*3 -3.8 C 0 km/h
1097 22-02-2011 03:30:13 -4 C 1.94 g/m*3 -4 C 0 km/h
1098 22-02-2011 03:42:13 -4.2 C 1.95 g/m*3 -4.2 C 0 km/h
1099 22-02-2011 03:54:13 -4.4 C 1.96 g/m*3 -4.4 C 0 km/h
1100 22-02-2011 04:06:13 -4.5 C 1.94 g/m*3 -4.5 C 0 km/h
Sensor: Nr:Datum:Temp:Abs-Feuchte:Windchill:Wind:
Aussen-T/F 1101 22-02-2011 04:18:13 -4.7 C 1.91 g/m*3 -4.7 C 0 km/h
1102 22-02-2011 04:30:13 -4.9 C 1.89 g/m*3 -4.9 C 0 km/h
1103 22-02-2011 04:42:13 -5.2 C 1.88 g/m*3 -5.2 C 0 km/h
1104 22-02-2011 04:54:13 -5.5 C 1.84 g/m*3 -5.5 C 0 km/h
1105 22-02-2011 05:06:13 -5.6 C 1.89 g/m*3 -5.6 C 0 km/h
1106 22-02-2011 05:18:13 -5.7 C 1.88 g/m*3 -5.7 C 0 km/h
1107 22-02-2011 05:30:14 -6 C 1.84 g/m*3 -6 C 0 km/h
1108 22-02-2011 05:42:14 -6.3 C 1.86 g/m*3 -6.3 C 0 km/h
1109 22-02-2011 05:54:14 -6.7 C 1.81 g/m*3 -6.7 C 0 km/h
1110 22-02-2011 06:06:14 -7.2 C 1.8 g/m*3 -7.2 C 0 km/h
1111 22-02-2011 06:18:14 -7.9 C 1.76 g/m*3 -7.9 C 0 km/h
1112 22-02-2011 06:30:14 -8.1 C 1.82 g/m*3 -8.1 C 0 km/h
1113 22-02-2011 06:42:14 -8 C 1.86 g/m*3 -8 C 0 km/h
1114 22-02-2011 06:54:14 -7.7 C 1.93 g/m*3 -7.7 C 0 km/h
1115 22-02-2011 07:06:14 -8 C 1.86 g/m*3 -8 C 0 km/h
1116 22-02-2011 07:18:03 -8.2 C 1.86 g/m*3 -8.2 C 0 km/h
1117 22-02-2011 07:30:03 -8.7 C 1.79 g/m*3 -8.7 C 0 km/h
1118 22-02-2011 07:42:03 -8.4 C 1.88 g/m*3 -8.4 C 0 km/h
1119 22-02-2011 07:54:02 -8.3 C 1.9 g/m*3 -8.3 C 0 km/h
1120 22-02-2011 08:06:02 -8.1 C 1.93 g/m*3 -8.1 C 0 km/h
1121 22-02-2011 08:18:02 -7.7 C 1.96 g/m*3 -7.7 C 0 km/h
1122 22-02-2011 08:30:02 -7.8 C 1.86 g/m*3 -7.8 C 0 km/h
1123 22-02-2011 08:42:02 -7.5 C 1.87 g/m*3 -7.5 C 0 km/h
1124 22-02-2011 08:54:01 -7.5 C 1.84 g/m*3 -7.5 C 0 km/h
1125 22-02-2011 09:06:01 -7.3 C 1.87 g/m*3 -7.3 C 0 km/h
Sensor: Nr:Datum:Temp:Abs-Feuchte:Windchill:Wind:
Aussen-T/F 1126 22-02-2011 09:18:02 -6.9 C 1.9 g/m*3 -6.9 C 0 km/h
1127 22-02-2011 09:30:02 -6.9 C 1.87 g/m*3 -6.9 C 0 km/h
1128 22-02-2011 09:42:01 -6.9 C 1.84 g/m*3 -6.9 C 0 km/h
1129 22-02-2011 09:54:02 -6.8 C 1.82 g/m*3 -6.8 C 0 km/h
1130 22-02-2011 10:06:02 -6.5 C 1.83 g/m*3 -6.5 C 0 km/h
1131 22-02-2011 10:18:02 -6.1 C 1.86 g/m*3 -6.1 C 0 km/h
1132 22-02-2011 10:30:02 -5.7 C 1.88 g/m*3 -5.7 C 0 km/h
1133 22-02-2011 10:42:03 -5.3 C 1.9 g/m*3 -5.3 C 0 km/h
1134 22-02-2011 10:54:01 -5 C 1.87 g/m*3 -5 C 0 km/h
1135 22-02-2011 11:06:02 -4.5 C 1.87 g/m*3 -4.5 C 0 km/h
1136 22-02-2011 11:18:01 -3.6 C 1.88 g/m*3 -3.6 C 0 km/h
1137 22-02-2011 11:30:01 -3.7 C 1.83 g/m*3 -3.7 C 0 km/h
1138 22-02-2011 11:42:01 -3.1 C 1.83 g/m*3 -3.1 C 0 km/h
1139 22-02-2011 11:54:01 -2.8 C 1.79 g/m*3 -2.8 C 0 km/h
1140 22-02-2011 12:06:01 -1.9 C 1.87 g/m*3 -1.9 C 0 km/h
1141 22-02-2011 12:18:02 -1 C 1.85 g/m*3 -1 C 0 km/h
1142 22-02-2011 12:30:02 -1.1 C 1.84 g/m*3 -1.1 C 0 km/h
1143 22-02-2011 12:42:01 0.3 C 1.98 g/m*3 0.3 C 0 km/h
1144 22-02-2011 12:54:03 3.5 C 1.91 g/m*3 3.5 C 0 km/h
1145 22-02-2011 13:06:02 3.1 C 1.56 g/m*3 3.1 C 0 km/h
1146 22-02-2011 13:18:02 3.8 C 1.63 g/m*3 3.8 C 0 km/h
1147 22-02-2011 13:30:02 2.3 C 1.3 g/m*3 2.3 C 0 km/h
1148 22-02-2011 13:42:02 0.7 C 1.63 g/m*3 0.7 C 0 km/h
1149 22-02-2011 13:54:02 -0.2 C 1.77 g/m*3 -0.2 C 0 km/h
1150 22-02-2011 14:06:02 0.4 C 1.89 g/m*3 0.4 C 0 km/h
Sensor: Nr:Datum:Temp:Abs-Feuchte:Windchill:Wind:
Aussen-T/F 1151 22-02-2011 14:18:02 1.3 C 1.85 g/m*3 1.3 C 0 km/h
1152 22-02-2011 14:30:02 1.3 C 1.85 g/m*3 1.3 C 0 km/h
1153 22-02-2011 14:42:02 2.9 C 1.89 g/m*3 2.9 C 0 km/h
1154 22-02-2011 14:54:02 2.2 C 1.69 g/m*3 2.2 C 0 km/h
1155 22-02-2011 15:06:02 3 C 1.78 g/m*3 3 C 0 km/h
1156 22-02-2011 15:18:01 4.1 C 1.73 g/m*3 4.1 C 0 km/h
1157 22-02-2011 15:30:01 3.5 C 1.54 g/m*3 3.5 C 0 km/h
1158 22-02-2011 15:42:02 3 C 1.49 g/m*3 3 C 0 km/h
1159 22-02-2011 15:54:02 3.8 C 1.57 g/m*3 3.8 C 0 km/h
1160 22-02-2011 16:06:02 4.4 C 1.31 g/m*3 4.4 C 0 km/h
1161 22-02-2011 16:18:01 6.3 C 1.48 g/m*3 6.3 C 0 km/h
1162 22-02-2011 16:30:01 6.6 C 1.51 g/m*3 6.6 C 0 km/h
1163 22-02-2011 16:42:02 5.5 C 1.4 g/m*3 5.5 C 0 km/h
1164 22-02-2011 16:54:02 6.7 C 1.52 g/m*3 6.7 C 0 km/h
1165 22-02-2011 17:06:02 5.2 C 1.38 g/m*3 5.2 C 0 km/h
1166 22-02-2011 17:18:01 4 C 1.27 g/m*3 4 C 0 km/h
1167 22-02-2011 17:30:01 1 C 1.87 g/m*3 1 C 0 km/h
1168 22-02-2011 17:42:02 -1.2 C 1.87 g/m*3 -1.2 C 0 km/h
1169 22-02-2011 17:54:02 -2.5 C 1.87 g/m*3 -2.5 C 0 km/h
1170 22-02-2011 18:06:02 -3.3 C 1.92 g/m*3 -3.3 C 0 km/h
1171 22-02-2011 18:18:02 -3.8 C 2.04 g/m*3 -3.8 C 0 km/h
1172 22-02-2011 18:30:02 -3.8 C 2.12 g/m*3 -3.8 C 0 km/h
1173 22-02-2011 18:42:02 -4 C 2.12 g/m*3 -4 C 0 km/h
1174 22-02-2011 18:54:02 -3.9 C 2.21 g/m*3 -3.9 C 0 km/h
1175 22-02-2011 19:06:01 -4.4 C 2.1 g/m*3 -4.4 C 0 km/h
Sensor: Nr:Datum:Temp:Abs-Feuchte:Windchill:Wind:
Aussen-T/F 1176 22-02-2011 19:18:02 -4.5 C 2.08 g/m*3 -4.5 C 0 km/h
1177 22-02-2011 19:30:03 -4.2 C 2.16 g/m*3 -4.2 C 0 km/h
1178 22-02-2011 19:42:01 -4.7 C 2.12 g/m*3 -4.7 C 0 km/h
1179 22-02-2011 19:54:02 -4.8 C 2.11 g/m*3 -4.8 C 0 km/h
1180 22-02-2011 20:06:03 -4.8 C 2.04 g/m*3 -4.8 C 0 km/h
1181 22-02-2011 20:18:01 -5.3 C 2 g/m*3 -5.3 C 0 km/h
1182 22-02-2011 20:30:01 -5.4 C 2.05 g/m*3 -5.4 C 0 km/h
1183 22-02-2011 20:42:01 -5.2 C 2.15 g/m*3 -5.2 C 0 km/h
1184 22-02-2011 20:54:01 -5 C 2.25 g/m*3 -5 C 0 km/h
1185 22-02-2011 21:06:01 -5.2 C 2.15 g/m*3 -5.2 C 0 km/h
1186 22-02-2011 21:18:02 -5.1 C 2.13 g/m*3 -5.1 C 0 km/h
1187 22-02-2011 21:30:02 -5.3 C 2.07 g/m*3 -5.3 C 0 km/h
1188 22-02-2011 21:42:01 -5.5 C 2 g/m*3 -5.5 C 0 km/h
1189 22-02-2011 21:54:02 -5.7 C 2.01 g/m*3 -5.7 C 0 km/h
1190 22-02-2011 22:06:01 -5.5 C 2.04 g/m*3 -5.5 C 0 km/h
1191 22-02-2011 22:19:03 -5.4 C 2.05 g/m*3 -5.4 C 0 km/h
1192 22-02-2011 22:31:03 -5.6 C 2.05 g/m*3 -5.6 C 0 km/h
1193 22-02-2011 22:43:03 -5.5 C 2.1 g/m*3 -5.5 C 0 km/h
1194 22-02-2011 22:55:03 -5.8 C 1.96 g/m*3 -5.8 C 0 km/h
1195 22-02-2011 23:07:03 -5.9 C 1.95 g/m*3 -5.9 C 0 km/h
1196 22-02-2011 23:19:04 -6 C 1.93 g/m*3 -6 C 0 km/h
1197 22-02-2011 23:31:04 -6.1 C 1.89 g/m*3 -6.1 C 0 km/h
1198 22-02-2011 23:43:04 -6.3 C 1.83 g/m*3 -6.3 C 0 km/h
1199 22-02-2011 23:55:04 -6.2 C 1.94 g/m*3 -6.2 C 0 km/h
1200 23-02-2011 00:07:04 -6.4 C 1.94 g/m*3 -6.4 C 0 km/h
Sensor: Nr:Datum:Temp:Abs-Feuchte:Windchill:Wind:
Aussen-T/F 1201 23-02-2011 00:19:04 -6.4 C 1.94 g/m*3 -6.4 C 0 km/h
1202 23-02-2011 00:31:04 -6.8 C 1.88 g/m*3 -6.8 C 0 km/h
1203 23-02-2011 00:43:04 -7 C 1.88 g/m*3 -7 C 0 km/h
1204 23-02-2011 00:55:04 -6.9 C 1.9 g/m*3 -6.9 C 0 km/h
1205 23-02-2011 01:07:04 -6.9 C 1.93 g/m*3 -6.9 C 0 km/h
1206 23-02-2011 01:19:04 -7.3 C 1.87 g/m*3 -7.3 C 0 km/h
1207 23-02-2011 01:31:04 -7.4 C 1.86 g/m*3 -7.4 C 0 km/h
1208 23-02-2011 01:43:04 -7 C 1.94 g/m*3 -7 C 0 km/h
1209 23-02-2011 01:55:04 -7.4 C 1.86 g/m*3 -7.4 C 0 km/h
1210 23-02-2011 02:07:04 -7.8 C 1.8 g/m*3 -7.8 C 0 km/h
1211 23-02-2011 02:19:04 -7.8 C 1.8 g/m*3 -7.8 C 0 km/h
1212 23-02-2011 02:31:04 -7.9 C 1.79 g/m*3 -7.9 C 0 km/h
1213 23-02-2011 02:43:04 -8.1 C 1.79 g/m*3 -8.1 C 0 km/h
1214 23-02-2011 02:55:04 -7.9 C 1.85 g/m*3 -7.9 C 0 km/h
1215 23-02-2011 03:07:04 -7.9 C 1.87 g/m*3 -7.9 C 0 km/h
1216 23-02-2011 03:19:05 -7.3 C 1.96 g/m*3 -7.3 C 0 km/h
1217 23-02-2011 03:31:05 -8.1 C 1.82 g/m*3 -8.1 C 0 km/h
1218 23-02-2011 03:43:05 -8.6 C 1.78 g/m*3 -8.6 C 0 km/h
1219 23-02-2011 03:55:05 -8.8 C 1.78 g/m*3 -8.8 C 0 km/h
1220 23-02-2011 04:07:05 -8.6 C 1.83 g/m*3 -8.6 C 0 km/h
1221 23-02-2011 04:19:05 -8.5 C 1.84 g/m*3 -8.5 C 0 km/h
1222 23-02-2011 04:31:05 -8.7 C 1.82 g/m*3 -8.7 C 0 km/h
1223 23-02-2011 04:43:05 -8.9 C 1.82 g/m*3 -8.9 C 0 km/h
1224 23-02-2011 04:55:05 -9.1 C 1.79 g/m*3 -9.1 C 0 km/h
1225 23-02-2011 05:07:05 -8.9 C 1.84 g/m*3 -8.9 C 0 km/h
Sensor: Nr:Datum:Temp:Abs-Feuchte:Windchill:Wind:
Aussen-T/F 1226 23-02-2011 05:19:05 -8.8 C 1.88 g/m*3 -8.8 C 0 km/h
1227 23-02-2011 05:31:05 -8.7 C 1.9 g/m*3 -8.7 C 0 km/h
1228 23-02-2011 05:43:05 -8.7 C 1.9 g/m*3 -8.7 C 0 km/h
1229 23-02-2011 05:55:05 -8.9 C 1.84 g/m*3 -8.9 C 0 km/h
1230 23-02-2011 06:07:05 -9.1 C 1.81 g/m*3 -9.1 C 0 km/h
1231 23-02-2011 06:19:05 -9.4 C 1.77 g/m*3 -9.4 C 0 km/h
1232 23-02-2011 06:31:05 -9.5 C 1.76 g/m*3 -9.5 C 0 km/h
1233 23-02-2011 06:43:05 -9.4 C 1.77 g/m*3 -9.4 C 0 km/h
1234 23-02-2011 06:55:05 -9.4 C 1.77 g/m*3 -9.4 C 0 km/h
1235 23-02-2011 07:07:05 -9.5 C 1.76 g/m*3 -9.5 C 0 km/h
1236 23-02-2011 07:19:02 -9.1 C 1.84 g/m*3 -9.1 C 0 km/h
1237 23-02-2011 07:31:02 -9.2 C 1.83 g/m*3 -9.2 C 0 km/h
1238 23-02-2011 07:43:02 -9.3 C 1.81 g/m*3 -9.3 C 0 km/h
1239 23-02-2011 07:55:02 -8.8 C 1.91 g/m*3 -8.8 C 0 km/h
1240 23-02-2011 08:07:02 -8.3 C 2.01 g/m*3 -8.3 C 0 km/h
1241 23-02-2011 08:19:01 -7.9 C 2.07 g/m*3 -7.9 C 0 km/h
1242 23-02-2011 08:31:02 -7.6 C 2.11 g/m*3 -7.6 C 0 km/h
1243 23-02-2011 08:43:02 -7.2 C 2.18 g/m*3 -7.2 C 0 km/h
1244 23-02-2011 08:55:02 -6.5 C 2.26 g/m*3 -6.5 C 0 km/h
1245 23-02-2011 09:07:02 -5.8 C 2.35 g/m*3 -5.8 C 0 km/h
1246 23-02-2011 09:19:01 -5.3 C 2.33 g/m*3 -5.3 C 0 km/h
1247 23-02-2011 09:31:02 -4.8 C 2.31 g/m*3 -4.8 C 0 km/h
1248 23-02-2011 09:43:02 -4.5 C 2.29 g/m*3 -4.5 C 0 km/h
1249 23-02-2011 09:55:02 -3.8 C 2.26 g/m*3 -3.8 C 0 km/h
1250 23-02-2011 10:07:02 -3.3 C 2.35 g/m*3 -3.3 C 0 km/h
Sensor: Nr:Datum:Temp:Abs-Feuchte:Windchill:Wind:
Aussen-T/F 1251 23-02-2011 10:19:02 -2.7 C 2.37 g/m*3 -2.7 C 0 km/h
1252 23-02-2011 10:31:02 -2.3 C 2.31 g/m*3 -2.3 C 0 km/h
1253 23-02-2011 10:43:02 -1.8 C 2.27 g/m*3 -1.8 C 0 km/h
1254 23-02-2011 10:55:02 -1.3 C 2.17 g/m*3 -1.3 C 0 km/h
1255 23-02-2011 11:07:01 -0.9 C 2.09 g/m*3 -0.9 C 0 km/h
1256 23-02-2011 11:19:01 -0.5 C 2.06 g/m*3 -0.5 C 0 km/h
1257 23-02-2011 11:31:02 -0.6 C 1.91 g/m*3 -0.6 C 0 km/h
1258 23-02-2011 11:43:02 0.3 C 1.88 g/m*3 0.3 C 0 km/h
1259 23-02-2011 11:55:02 0.2 C 1.92 g/m*3 0.2 C 0 km/h
1260 23-02-2011 12:07:02 1.1 C 1.93 g/m*3 1.1 C 0 km/h
1261 23-02-2011 12:19:02 1.2 C 1.68 g/m*3 1.2 C 0 km/h
1262 23-02-2011 12:31:02 1.3 C 1.54 g/m*3 1.3 C 0 km/h
1263 23-02-2011 12:43:02 1.8 C 1.26 g/m*3 1.8 C 0 km/h
1264 23-02-2011 12:55:02 3.2 C 1.21 g/m*3 3.2 C 0 km/h
1265 23-02-2011 13:07:02 4.4 C 1.31 g/m*3 4.4 C 0 km/h
1266 23-02-2011 13:19:02 3.1 C 1.2 g/m*3 3.1 C 0 km/h
1267 23-02-2011 13:31:02 3.8 C 1.25 g/m*3 3.8 C 0 km/h
1268 23-02-2011 13:43:02 3.3 C 1.21 g/m*3 3.3 C 0 km/h
1269 23-02-2011 13:55:02 3.7 C 1.25 g/m*3 3.7 C 0 km/h
1270 23-02-2011 14:07:02 3.9 C 1.26 g/m*3 3.9 C 0 km/h
1271 23-02-2011 14:19:03 4.2 C 1.29 g/m*3 4.2 C 0 km/h
1272 23-02-2011 14:31:02 3.9 C 1.26 g/m*3 3.9 C 0 km/h
1273 23-02-2011 14:43:02 3.8 C 1.25 g/m*3 3.8 C 0 km/h
1274 23-02-2011 14:55:02 4 C 1.27 g/m*3 4 C 0 km/h
1275 23-02-2011 15:07:02 4.1 C 1.28 g/m*3 4.1 C 0 km/h
Sensor: Nr:Datum:Temp:Abs-Feuchte:Windchill:Wind:
Aussen-T/F 1276 23-02-2011 15:19:02 3.7 C 1.25 g/m*3 3.7 C 0 km/h
1277 23-02-2011 15:31:02 3.5 C 1.23 g/m*3 3.5 C 0 km/h
1278 23-02-2011 15:43:02 3.7 C 1.25 g/m*3 3.7 C 0 km/h
1279 23-02-2011 15:55:02 3.7 C 1.25 g/m*3 3.7 C 0 km/h
1280 23-02-2011 16:07:01 3.2 C 1.21 g/m*3 3.2 C 0 km/h
1281 23-02-2011 16:19:02 3 C 1.19 g/m*3 3 C 0 km/h
1282 23-02-2011 16:31:02 3.1 C 1.2 g/m*3 3.1 C 0 km/h
1283 23-02-2011 16:43:02 2.8 C 1.17 g/m*3 2.8 C 0 km/h
1284 23-02-2011 16:55:01 2.9 C 1.18 g/m*3 2.9 C 0 km/h
1285 23-02-2011 17:07:02 2.3 C 1.13 g/m*3 2.3 C 0 km/h
1286 23-02-2011 17:19:01 1.6 C 1.62 g/m*3 1.6 C 0 km/h
1287 23-02-2011 17:31:02 1.4 C 1.6 g/m*3 1.4 C 0 km/h
1288 23-02-2011 17:43:02 0.8 C 1.79 g/m*3 0.8 C 0 km/h
1289 23-02-2011 17:55:02 0.2 C 2.01 g/m*3 0.2 C 0 km/h
1290 23-02-2011 18:07:02 -0.1 C 2.17 g/m*3 -0.1 C 0 km/h
1291 23-02-2011 18:19:01 -0.2 C 2.15 g/m*3 -0.2 C 0 km/h
1292 23-02-2011 18:31:02 -0.3 C 2.14 g/m*3 -0.3 C 0 km/h
1293 23-02-2011 18:43:02 -0.3 C 2.18 g/m*3 -0.3 C 0 km/h
1294 23-02-2011 18:55:02 -0.6 C 2.23 g/m*3 -0.6 C 0 km/h
1295 23-02-2011 19:07:02 0.1 C 2.2 g/m*3 0.1 C 0 km/h
1296 23-02-2011 19:19:02 0.1 C 2.05 g/m*3 0.1 C 0 km/h
1297 23-02-2011 19:31:02 0.4 C 2.09 g/m*3 0.4 C 0 km/h
1298 23-02-2011 19:43:02 0.3 C 2.08 g/m*3 0.3 C 0 km/h
1299 23-02-2011 19:55:02 0.4 C 2.04 g/m*3 0.4 C 0 km/h
1300 23-02-2011 20:07:02 0.3 C 2.03 g/m*3 0.3 C 0 km/h
Sensor: Nr:Datum:Temp:Abs-Feuchte:Windchill:Wind:
Aussen-T/F 1301 23-02-2011 20:19:02 0.2 C 2.01 g/m*3 0.2 C 0 km/h
1302 23-02-2011 20:31:02 0.1 C 2.1 g/m*3 0.1 C 0 km/h
1303 23-02-2011 20:43:02 -0.3 C 2.14 g/m*3 -0.3 C 0 km/h
1304 23-02-2011 20:55:02 0.1 C 2.2 g/m*3 0.1 C 0 km/h
1305 23-02-2011 21:07:02 0.5 C 2.11 g/m*3 0.5 C 0 km/h
1306 23-02-2011 21:19:02 0.1 C 2.2 g/m*3 0.1 C 0 km/h
1307 23-02-2011 21:31:02 -0.2 C 2.25 g/m*3 -0.2 C 0 km/h
1308 23-02-2011 21:43:02 -0.3 C 2.33 g/m*3 -0.3 C 0 km/h
1309 23-02-2011 21:55:02 -0.4 C 2.36 g/m*3 -0.4 C 0 km/h
1310 23-02-2011 22:07:02 -0.1 C 2.36 g/m*3 -0.1 C 0 km/h
1311 23-02-2011 22:19:02 0 C 2.28 g/m*3 0 C 0 km/h
1312 23-02-2011 22:31:02 -0.1 C 2.31 g/m*3 -0.1 C 0 km/h
1313 23-02-2011 22:43:02 -0.1 C 2.36 g/m*3 -0.1 C 0 km/h
1314 23-02-2011 22:55:02 -0.1 C 2.31 g/m*3 -0.1 C 0 km/h
1315 23-02-2011 23:07:02 -0.2 C 2.48 g/m*3 -0.2 C 0 km/h
1316 23-02-2011 23:19:02 -0.3 C 2.37 g/m*3 -0.3 C 0 km/h
1317 23-02-2011 23:31:02 -0.2 C 2.58 g/m*3 -0.2 C 0 km/h
1318 23-02-2011 23:43:02 -0.3 C 2.56 g/m*3 -0.3 C 0 km/h
1319 23-02-2011 23:55:01 -0.3 C 2.56 g/m*3 -0.3 C 0 km/h
1320 24-02-2011 00:07:01 -0.3 C 2.61 g/m*3 -0.3 C 0 km/h
1321 24-02-2011 00:19:02 -0.4 C 2.54 g/m*3 -0.4 C 0 km/h
1322 24-02-2011 00:31:01 -0.4 C 2.59 g/m*3 -0.4 C 0 km/h
1323 24-02-2011 00:43:01 -0.5 C 2.57 g/m*3 -0.5 C 0 km/h
1324 24-02-2011 00:55:03 -0.6 C 2.6 g/m*3 -0.6 C 0 km/h
1325 24-02-2011 01:07:02 -0.7 C 2.63 g/m*3 -0.7 C 0 km/h
Sensor: Nr:Datum:Temp:Abs-Feuchte:Windchill:Wind:
Aussen-T/F 1326 24-02-2011 01:19:02 -0.9 C 2.64 g/m*3 -0.9 C 0 km/h
1327 24-02-2011 01:31:03 -0.9 C 2.69 g/m*3 -0.9 C 0 km/h
1328 24-02-2011 01:43:03 -0.6 C 2.74 g/m*3 -0.6 C 0 km/h
1329 24-02-2011 01:55:02 -0.6 C 2.7 g/m*3 -0.6 C 0 km/h
1330 24-02-2011 02:07:01 -0.6 C 2.7 g/m*3 -0.6 C 0 km/h
1331 24-02-2011 02:19:02 -0.6 C 2.7 g/m*3 -0.6 C 0 km/h
1332 24-02-2011 02:31:02 -0.5 C 2.62 g/m*3 -0.5 C 0 km/h
1333 24-02-2011 02:43:02 -0.4 C 2.45 g/m*3 -0.4 C 0 km/h
1334 24-02-2011 02:56:03 -0.3 C 2.56 g/m*3 -0.3 C 0 km/h
1335 24-02-2011 03:08:03 -0.2 C 2.63 g/m*3 -0.2 C 0 km/h
1336 24-02-2011 03:20:04 -0.2 C 2.72 g/m*3 -0.2 C 0 km/h
1337 24-02-2011 03:32:02 -0.2 C 2.72 g/m*3 -0.2 C 0 km/h
1338 24-02-2011 03:44:02 0 C 2.76 g/m*3 0 C 0 km/h
1339 24-02-2011 03:56:03 0 C 2.76 g/m*3 0 C 0 km/h
1340 24-02-2011 04:08:01 0.1 C 2.83 g/m*3 0.1 C 0 km/h
1341 24-02-2011 04:20:02 0.4 C 2.69 g/m*3 0.4 C 0 km/h
1342 24-02-2011 04:32:02 0.4 C 2.74 g/m*3 0.4 C 0 km/h
1343 24-02-2011 04:44:02 0 C 3 g/m*3 0 C 0 km/h
1344 24-02-2011 04:56:01 -0.3 C 3.13 g/m*3 -0.3 C 0 km/h
1345 24-02-2011 05:08:02 -0.6 C 3.25 g/m*3 -0.6 C 0 km/h
1346 24-02-2011 05:20:01 -0.8 C 3.25 g/m*3 -0.8 C 0 km/h
1347 24-02-2011 05:32:01 -0.8 C 3.44 g/m*3 -0.8 C 0 km/h
1348 24-02-2011 05:44:02 -1 C 3.48 g/m*3 -1 C 0 km/h
1349 24-02-2011 05:56:01 -1 C 3.57 g/m*3 -1 C 0 km/h
1350 24-02-2011 06:08:02 -0.9 C 3.64 g/m*3 -0.9 C 0 km/h
Sensor: Nr:Datum:Temp:Abs-Feuchte:Windchill:Wind:
Aussen-T/F 1351 24-02-2011 06:20:01 -0.9 C 3.6 g/m*3 -0.9 C 0 km/h
1352 24-02-2011 06:32:02 -0.9 C 3.55 g/m*3 -0.9 C 0 km/h
1353 24-02-2011 06:44:02 -0.9 C 3.55 g/m*3 -0.9 C 0 km/h
1354 24-02-2011 06:56:01 -0.8 C 3.58 g/m*3 -0.8 C 0 km/h
1355 24-02-2011 07:08:02 -0.8 C 3.62 g/m*3 -0.8 C 0 km/h
1356 24-02-2011 07:20:02 -0.8 C 3.62 g/m*3 -0.8 C 0 km/h
1357 24-02-2011 07:32:03 -0.8 C 3.67 g/m*3 -0.8 C 0 km/h
1358 24-02-2011 07:44:03 -0.7 C 3.69 g/m*3 -0.7 C 0 km/h
1359 24-02-2011 07:56:02 -0.7 C 3.69 g/m*3 -0.7 C 0 km/h
1360 24-02-2011 08:08:02 -0.6 C 3.76 g/m*3 -0.6 C 0 km/h
1361 24-02-2011 08:20:02 -0.6 C 3.81 g/m*3 -0.6 C 0 km/h
1362 24-02-2011 08:32:02 -0.5 C 3.84 g/m*3 -0.5 C 0 km/h
1363 24-02-2011 08:44:02 -0.3 C 3.94 g/m*3 -0.3 C 0 km/h
1364 24-02-2011 08:56:02 0 C 4.02 g/m*3 0 C 0 km/h
1365 24-02-2011 09:08:03 0 C 3.97 g/m*3 0 C 0 km/h
1366 24-02-2011 09:20:02 0.1 C 4 g/m*3 0.1 C 0 km/h
1367 24-02-2011 09:32:03 0.1 C 4 g/m*3 0.1 C 0 km/h
1368 24-02-2011 09:44:03 0.1 C 4 g/m*3 0.1 C 0 km/h
1369 24-02-2011 09:56:02 0.3 C 4.06 g/m*3 0.3 C 0 km/h
1370 24-02-2011 10:08:02 0.4 C 4.08 g/m*3 0.4 C 0 km/h
1371 24-02-2011 10:20:02 0.6 C 4.14 g/m*3 0.6 C 0 km/h
1372 24-02-2011 10:32:02 0.7 C 4.17 g/m*3 0.7 C 0 km/h
1373 24-02-2011 10:44:02 1 C 4.15 g/m*3 1 C 0 km/h
1374 24-02-2011 10:56:02 1.1 C 4.18 g/m*3 1.1 C 0 km/h
1375 24-02-2011 11:08:02 1.1 C 4.13 g/m*3 1.1 C 0 km/h
Sensor: Nr:Datum:Temp:Abs-Feuchte:Windchill:Wind:
Aussen-T/F 1376 24-02-2011 11:20:03 1.5 C 4.24 g/m*3 1.5 C 0 km/h
1377 24-02-2011 11:32:02 1.7 C 4.19 g/m*3 1.7 C 0 km/h
1378 24-02-2011 11:44:02 1.8 C 4.22 g/m*3 1.8 C 0 km/h
1379 24-02-2011 11:56:03 1.8 C 4.17 g/m*3 1.8 C 0 km/h
1380 24-02-2011 12:08:02 1.9 C 4.19 g/m*3 1.9 C 0 km/h
1381 24-02-2011 12:20:02 2.5 C 4.31 g/m*3 2.5 C 0 km/h
1382 24-02-2011 12:32:02 2.5 C 4.31 g/m*3 2.5 C 0 km/h
1383 24-02-2011 12:44:02 2.9 C 4.37 g/m*3 2.9 C 0 km/h
1384 24-02-2011 12:56:02 3.5 C 4.24 g/m*3 3.5 C 0 km/h
1385 24-02-2011 13:08:02 3.4 C 4.15 g/m*3 3.4 C 0 km/h
1386 24-02-2011 13:20:02 3.1 C 4.07 g/m*3 3.1 C 0 km/h
1387 24-02-2011 13:32:02 3.9 C 4.36 g/m*3 3.9 C 0 km/h
1388 24-02-2011 13:44:02 3.4 C 4.15 g/m*3 3.4 C 0 km/h
1389 24-02-2011 13:56:02 3.1 C 4.13 g/m*3 3.1 C 0 km/h
1390 24-02-2011 14:08:02 2.6 C 4.17 g/m*3 2.6 C 0 km/h
1391 24-02-2011 14:20:01 2.3 C 4.2 g/m*3 2.3 C 0 km/h
1392 24-02-2011 14:32:02 2.5 C 4.37 g/m*3 2.5 C 0 km/h
1393 24-02-2011 14:44:02 2.7 C 4.37 g/m*3 2.7 C 0 km/h
1394 24-02-2011 14:56:02 3 C 4.4 g/m*3 3 C 0 km/h
1395 24-02-2011 15:08:02 3.4 C 4.46 g/m*3 3.4 C 0 km/h
1396 24-02-2011 15:20:02 3.4 C 4.34 g/m*3 3.4 C 0 km/h
1397 24-02-2011 15:32:02 3 C 4.22 g/m*3 3 C 0 km/h
1398 24-02-2011 15:44:02 3.1 C 4.31 g/m*3 3.1 C 0 km/h
1399 24-02-2011 15:56:01 3 C 4.34 g/m*3 3 C 0 km/h
1400 24-02-2011 16:08:01 2.8 C 4.34 g/m*3 2.8 C 0 km/h
Sensor: Nr:Datum:Temp:Abs-Feuchte:Windchill:Wind:
Aussen-T/F 1401 24-02-2011 16:20:02 2.7 C 4.31 g/m*3 2.7 C 0 km/h
1402 24-02-2011 16:32:01 2.6 C 4.34 g/m*3 2.6 C 0 km/h
1403 24-02-2011 16:44:01 2.3 C 4.31 g/m*3 2.3 C 0 km/h
1404 24-02-2011 16:56:02 2.2 C 4.39 g/m*3 2.2 C 0 km/h
1405 24-02-2011 17:08:02 2 C 4.39 g/m*3 2 C 0 km/h
1406 24-02-2011 17:20:03 1.8 C 4.44 g/m*3 1.8 C 0 km/h
1407 24-02-2011 17:32:02 1.5 C 4.4 g/m*3 1.5 C 0 km/h
1408 24-02-2011 17:44:02 1.4 C 4.48 g/m*3 1.4 C 0 km/h
1409 24-02-2011 17:56:02 1.5 C 4.51 g/m*3 1.5 C 0 km/h
1410 24-02-2011 18:08:02 1.5 C 4.57 g/m*3 1.5 C 0 km/h
1411 24-02-2011 18:20:02 1.3 C 4.5 g/m*3 1.3 C 0 km/h
1412 24-02-2011 18:32:03 1.2 C 4.47 g/m*3 1.2 C 0 km/h
1413 24-02-2011 18:44:03 1.2 C 4.53 g/m*3 1.2 C 0 km/h
1414 24-02-2011 18:56:02 1.2 C 4.53 g/m*3 1.2 C 0 km/h
1415 24-02-2011 19:08:01 1.2 C 4.58 g/m*3 1.2 C 0 km/h
1416 24-02-2011 19:20:02 1.2 C 4.58 g/m*3 1.2 C 0 km/h
1417 24-02-2011 19:32:02 1.3 C 4.61 g/m*3 1.3 C 0 km/h
1418 24-02-2011 19:44:02 1.3 C 4.61 g/m*3 1.3 C 0 km/h
1419 24-02-2011 19:56:01 1.3 C 4.66 g/m*3 1.3 C 0 km/h
1420 24-02-2011 20:08:02 1.3 C 4.66 g/m*3 1.3 C 0 km/h
1421 24-02-2011 20:20:01 1.3 C 4.66 g/m*3 1.3 C 0 km/h
1422 24-02-2011 20:32:02 1.2 C 4.63 g/m*3 1.2 C 0 km/h
1423 24-02-2011 20:44:02 1.3 C 4.66 g/m*3 1.3 C 0 km/h
1424 24-02-2011 20:56:02 1.3 C 4.66 g/m*3 1.3 C 0 km/h
1425 24-02-2011 21:08:02 1.3 C 4.66 g/m*3 1.3 C 0 km/h
Sensor: Nr:Datum:Temp:Abs-Feuchte:Windchill:Wind:
Aussen-T/F 1426 24-02-2011 21:20:01 1.3 C 4.66 g/m*3 1.3 C 0 km/h
1427 24-02-2011 21:33:03 1.3 C 4.72 g/m*3 1.3 C 0 km/h
1428 24-02-2011 21:45:03 1.3 C 4.72 g/m*3 1.3 C 0 km/h
1429 24-02-2011 21:57:03 1.4 C 4.75 g/m*3 1.4 C 0 km/h
1430 24-02-2011 22:09:03 1.4 C 4.75 g/m*3 1.4 C 0 km/h
1431 24-02-2011 22:21:03 1.4 C 4.75 g/m*3 1.4 C 0 km/h
1432 24-02-2011 22:33:03 1.4 C 4.75 g/m*3 1.4 C 0 km/h
1433 24-02-2011 22:45:03 1.4 C 4.75 g/m*3 1.4 C 0 km/h
1434 24-02-2011 22:57:03 1.4 C 4.75 g/m*3 1.4 C 0 km/h
1435 24-02-2011 23:09:03 1.4 C 4.75 g/m*3 1.4 C 0 km/h
1436 24-02-2011 23:21:03 1.4 C 4.75 g/m*3 1.4 C 0 km/h
1437 24-02-2011 23:33:03 1.4 C 4.75 g/m*3 1.4 C 0 km/h
1438 24-02-2011 23:45:03 1.4 C 4.75 g/m*3 1.4 C 0 km/h
1439 24-02-2011 23:57:03 1.4 C 4.75 g/m*3 1.4 C 0 km/h
1440 25-02-2011 00:09:03 1.4 C 4.75 g/m*3 1.4 C 0 km/h
1441 25-02-2011 00:21:03 1.4 C 4.75 g/m*3 1.4 C 0 km/h
1442 25-02-2011 00:33:04 1.5 C 4.78 g/m*3 1.5 C 0 km/h
1443 25-02-2011 00:45:04 1.5 C 4.78 g/m*3 1.5 C 0 km/h
1444 25-02-2011 00:57:04 1.4 C 4.75 g/m*3 1.4 C 0 km/h
1445 25-02-2011 01:09:04 1.4 C 4.75 g/m*3 1.4 C 0 km/h
1446 25-02-2011 01:21:04 1.5 C 4.78 g/m*3 1.5 C 0 km/h
1447 25-02-2011 01:33:04 1.4 C 4.8 g/m*3 1.4 C 0 km/h
1448 25-02-2011 01:45:04 1.4 C 4.8 g/m*3 1.4 C 0 km/h
1449 25-02-2011 01:57:04 1.5 C 4.83 g/m*3 1.5 C 0 km/h
1450 25-02-2011 02:09:04 1.4 C 4.8 g/m*3 1.4 C 0 km/h
Sensor: Nr:Datum:Temp:Abs-Feuchte:Windchill:Wind:
Aussen-T/F 1451 25-02-2011 02:21:04 1.4 C 4.8 g/m*3 1.4 C 0 km/h
1452 25-02-2011 02:33:04 1.4 C 4.8 g/m*3 1.4 C 0 km/h
1453 25-02-2011 02:45:04 1.4 C 4.8 g/m*3 1.4 C 0 km/h
1454 25-02-2011 02:57:04 1.5 C 4.83 g/m*3 1.5 C 0 km/h
1455 25-02-2011 03:09:04 1.5 C 4.83 g/m*3 1.5 C 0 km/h
1456 25-02-2011 03:21:04 1.5 C 4.83 g/m*3 1.5 C 0 km/h
1457 25-02-2011 03:33:04 1.6 C 4.87 g/m*3 1.6 C 0 km/h
1458 25-02-2011 03:45:04 1.5 C 4.83 g/m*3 1.5 C 0 km/h
1459 25-02-2011 03:57:04 1.4 C 4.8 g/m*3 1.4 C 0 km/h
1460 25-02-2011 04:09:04 1.5 C 4.83 g/m*3 1.5 C 0 km/h
1461 25-02-2011 04:21:04 1.4 C 4.8 g/m*3 1.4 C 0 km/h
1462 25-02-2011 04:33:04 1.5 C 4.83 g/m*3 1.5 C 0 km/h
1463 25-02-2011 04:45:05 1.5 C 4.83 g/m*3 1.5 C 0 km/h
1464 25-02-2011 04:57:05 1.5 C 4.83 g/m*3 1.5 C 0 km/h
1465 25-02-2011 05:09:05 1.6 C 4.92 g/m*3 1.6 C 0 km/h
1466 25-02-2011 05:21:05 1.6 C 4.92 g/m*3 1.6 C 0 km/h
1467 25-02-2011 05:33:05 1.6 C 4.92 g/m*3 1.6 C 0 km/h
1468 25-02-2011 05:45:05 1.7 C 4.95 g/m*3 1.7 C 0 km/h
1469 25-02-2011 05:57:05 1.7 C 4.95 g/m*3 1.7 C 0 km/h
1470 25-02-2011 06:09:05 1.7 C 4.95 g/m*3 1.7 C 0 km/h
1471 25-02-2011 06:21:05 1.6 C 4.92 g/m*3 1.6 C 0 km/h
1472 25-02-2011 06:33:05 1.7 C 4.95 g/m*3 1.7 C 0 km/h
1473 25-02-2011 06:45:05 1.7 C 4.95 g/m*3 1.7 C 0 km/h
1474 25-02-2011 06:57:05 1.8 C 4.99 g/m*3 1.8 C 0 km/h
1475 25-02-2011 07:09:05 1.8 C 4.99 g/m*3 1.8 C 0 km/h
Sensor: Nr:Datum:Temp:Abs-Feuchte:Windchill:Wind:
Aussen-T/F 1476 25-02-2011 07:21:03 1.9 C 5.02 g/m*3 1.9 C 0 km/h
1477 25-02-2011 07:33:02 1.9 C 5.02 g/m*3 1.9 C 0 km/h
1478 25-02-2011 07:45:03 1.7 C 4.95 g/m*3 1.7 C 0 km/h
1479 25-02-2011 07:57:03 1.8 C 4.99 g/m*3 1.8 C 0 km/h
1480 25-02-2011 08:09:02 1.8 C 4.99 g/m*3 1.8 C 0 km/h
1481 25-02-2011 08:21:02 2 C 5 g/m*3 2 C 0 km/h
1482 25-02-2011 08:33:02 2.2 C 5.07 g/m*3 2.2 C 0 km/h
1483 25-02-2011 08:45:02 2.4 C 5.2 g/m*3 2.4 C 0 km/h
1484 25-02-2011 08:57:03 2.6 C 5.27 g/m*3 2.6 C 0 km/h
1485 25-02-2011 09:09:01 2.6 C 5.21 g/m*3 2.6 C 0 km/h
1486 25-02-2011 09:21:02 2.7 C 5.24 g/m*3 2.7 C 0 km/h
1487 25-02-2011 09:33:02 2.7 C 5.24 g/m*3 2.7 C 0 km/h
1488 25-02-2011 09:45:02 3.3 C 5.46 g/m*3 3.3 C 0 km/h
1489 25-02-2011 09:57:02 3.3 C 5.4 g/m*3 3.3 C 0 km/h
1490 25-02-2011 10:09:03 3.4 C 5.37 g/m*3 3.4 C 0 km/h
1491 25-02-2011 10:21:02 3.3 C 5.28 g/m*3 3.3 C 0 km/h
1492 25-02-2011 10:33:02 3.9 C 5.49 g/m*3 3.9 C 0 km/h
1493 25-02-2011 10:45:01 4 C 5.4 g/m*3 4 C 0 km/h
1494 25-02-2011 10:57:01 3.8 C 5.33 g/m*3 3.8 C 0 km/h
1495 25-02-2011 11:09:02 4.4 C 5.42 g/m*3 4.4 C 0 km/h
1496 25-02-2011 11:21:01 4.3 C 5.32 g/m*3 4.3 C 0 km/h
1497 25-02-2011 11:33:01 4.3 C 5.25 g/m*3 4.3 C 0 km/h
1498 25-02-2011 11:45:01 4.7 C 5.4 g/m*3 4.7 C 0 km/h
1499 25-02-2011 11:57:01 5.1 C 5.34 g/m*3 5.1 C 0 km/h
1500 25-02-2011 12:09:01 5.1 C 5.2 g/m*3 5.1 C 0 km/h
Sensor: Nr:Datum:Temp:Abs-Feuchte:Windchill:Wind:
Aussen-T/F 1501 25-02-2011 12:21:02 5.6 C 5.3 g/m*3 5.6 C 0 km/h
1502 25-02-2011 12:33:01 5.1 C 5.06 g/m*3 5.1 C 0 km/h
1503 25-02-2011 12:45:03 5.6 C 5.23 g/m*3 5.6 C 0 km/h
1504 25-02-2011 12:57:03 5.2 C 5.03 g/m*3 5.2 C 0 km/h
1505 25-02-2011 13:09:02 5.8 C 5.3 g/m*3 5.8 C 0 km/h
1506 25-02-2011 13:21:02 6.3 C 5.33 g/m*3 6.3 C 0 km/h
1507 25-02-2011 13:33:02 6.3 C 5.18 g/m*3 6.3 C 0 km/h
1508 25-02-2011 13:45:02 6.2 C 5.22 g/m*3 6.2 C 0 km/h
1509 25-02-2011 13:57:03 6 C 5.08 g/m*3 6 C 0 km/h
1510 25-02-2011 14:09:01 6.1 C 5.19 g/m*3 6.1 C 0 km/h
1511 25-02-2011 14:21:02 6.2 C 5.22 g/m*3 6.2 C 0 km/h
1512 25-02-2011 14:33:03 6.3 C 5.33 g/m*3 6.3 C 0 km/h
1513 25-02-2011 14:45:02 5.8 C 5.09 g/m*3 5.8 C 0 km/h
1514 25-02-2011 14:57:03 5.9 C 5.19 g/m*3 5.9 C 0 km/h
1515 25-02-2011 15:09:01 6.3 C 5.26 g/m*3 6.3 C 0 km/h
1516 25-02-2011 15:21:01 6.4 C 5.29 g/m*3 6.4 C 0 km/h
1517 25-02-2011 15:33:02 6.1 C 5.11 g/m*3 6.1 C 0 km/h
1518 25-02-2011 15:45:02 6 C 5.23 g/m*3 6 C 0 km/h
1519 25-02-2011 15:57:02 5.9 C 5.34 g/m*3 5.9 C 0 km/h
1520 25-02-2011 16:09:02 5.9 C 5.41 g/m*3 5.9 C 0 km/h
1521 25-02-2011 16:21:02 5.4 C 5.3 g/m*3 5.4 C 0 km/h
1522 25-02-2011 16:33:02 5.3 C 5.41 g/m*3 5.3 C 0 km/h
1523 25-02-2011 16:45:02 5.2 C 5.44 g/m*3 5.2 C 0 km/h
1524 25-02-2011 16:57:02 5.1 C 5.4 g/m*3 5.1 C 0 km/h
1525 25-02-2011 17:09:02 5 C 5.37 g/m*3 5 C 0 km/h
Sensor: Nr:Datum:Temp:Abs-Feuchte:Windchill:Wind:
Aussen-T/F 1526 25-02-2011 17:21:02 4.8 C 5.43 g/m*3 4.8 C 0 km/h
1527 25-02-2011 17:33:02 4.8 C 5.3 g/m*3 4.8 C 0 km/h
1528 25-02-2011 17:45:02 4.5 C 5.26 g/m*3 4.5 C 0 km/h
1529 25-02-2011 17:57:02 4.2 C 5.22 g/m*3 4.2 C 0 km/h
1530 25-02-2011 18:09:02 4.1 C 5.18 g/m*3 4.1 C 0 km/h
1531 25-02-2011 18:21:02 4.1 C 5.25 g/m*3 4.1 C 0 km/h
1532 25-02-2011 18:33:02 4.2 C 5.28 g/m*3 4.2 C 0 km/h
1533 25-02-2011 18:45:02 4.3 C 5.32 g/m*3 4.3 C 0 km/h
1534 25-02-2011 18:57:02 4.4 C 5.35 g/m*3 4.4 C 0 km/h
1535 25-02-2011 19:09:02 4.1 C 5.25 g/m*3 4.1 C 0 km/h
1536 25-02-2011 19:21:02 4 C 5.21 g/m*3 4 C 0 km/h
1537 25-02-2011 19:33:01 3.8 C 5.21 g/m*3 3.8 C 0 km/h
1538 25-02-2011 19:45:02 3.9 C 5.31 g/m*3 3.9 C 0 km/h
1539 25-02-2011 19:57:02 3.9 C 5.31 g/m*3 3.9 C 0 km/h
1540 25-02-2011 20:09:01 3.8 C 5.27 g/m*3 3.8 C 0 km/h
1541 25-02-2011 20:21:01 3.8 C 5.27 g/m*3 3.8 C 0 km/h
1542 25-02-2011 20:33:02 3.8 C 5.27 g/m*3 3.8 C 0 km/h
1543 25-02-2011 20:45:02 3.9 C 5.37 g/m*3 3.9 C 0 km/h
1544 25-02-2011 20:57:02 3.8 C 5.33 g/m*3 3.8 C 0 km/h
1545 25-02-2011 21:09:02 3.7 C 5.3 g/m*3 3.7 C 0 km/h
1546 25-02-2011 21:21:02 3.7 C 5.3 g/m*3 3.7 C 0 km/h
1547 25-02-2011 21:33:02 3.6 C 5.26 g/m*3 3.6 C 0 km/h
1548 25-02-2011 21:45:02 3.6 C 5.32 g/m*3 3.6 C 0 km/h
1549 25-02-2011 21:57:02 3.6 C 5.32 g/m*3 3.6 C 0 km/h
1550 25-02-2011 22:09:02 3.7 C 5.36 g/m*3 3.7 C 0 km/h
Sensor: Nr:Datum:Temp:Abs-Feuchte:Windchill:Wind:
Aussen-T/F 1551 25-02-2011 22:21:03 3.7 C 5.36 g/m*3 3.7 C 0 km/h
1552 25-02-2011 22:34:04 3.7 C 5.36 g/m*3 3.7 C 0 km/h
1553 25-02-2011 22:46:04 3.8 C 5.46 g/m*3 3.8 C 0 km/h
1554 25-02-2011 22:58:04 4 C 5.47 g/m*3 4 C 0 km/h
1555 25-02-2011 23:10:04 4 C 5.4 g/m*3 4 C 0 km/h
1556 25-02-2011 23:22:04 3.9 C 5.43 g/m*3 3.9 C 0 km/h
1557 25-02-2011 23:34:04 3.8 C 5.4 g/m*3 3.8 C 0 km/h
1558 25-02-2011 23:46:04 3.7 C 5.36 g/m*3 3.7 C 0 km/h
1559 25-02-2011 23:58:04 3.6 C 5.32 g/m*3 3.6 C 0 km/h
1560 26-02-2011 00:10:04 3.6 C 5.32 g/m*3 3.6 C 0 km/h
1561 26-02-2011 00:22:04 3.6 C 5.32 g/m*3 3.6 C 0 km/h
1562 26-02-2011 00:34:04 3.6 C 5.32 g/m*3 3.6 C 0 km/h
1563 26-02-2011 00:46:04 3.6 C 5.32 g/m*3 3.6 C 0 km/h
1564 26-02-2011 00:58:04 3.6 C 5.39 g/m*3 3.6 C 0 km/h
1565 26-02-2011 01:10:04 3.6 C 5.39 g/m*3 3.6 C 0 km/h
1566 26-02-2011 01:22:04 3.5 C 5.35 g/m*3 3.5 C 0 km/h
1567 26-02-2011 01:34:04 3.5 C 5.35 g/m*3 3.5 C 0 km/h
1568 26-02-2011 01:46:05 3.5 C 5.35 g/m*3 3.5 C 0 km/h
1569 26-02-2011 01:58:05 3.5 C 5.35 g/m*3 3.5 C 0 km/h
1570 26-02-2011 02:10:05 3.5 C 5.35 g/m*3 3.5 C 0 km/h
1571 26-02-2011 02:22:05 3.5 C 5.35 g/m*3 3.5 C 0 km/h
1572 26-02-2011 02:34:05 3.5 C 5.35 g/m*3 3.5 C 0 km/h
1573 26-02-2011 02:46:05 3.5 C 5.35 g/m*3 3.5 C 0 km/h
1574 26-02-2011 02:58:05 3.5 C 5.35 g/m*3 3.5 C 0 km/h
1575 26-02-2011 03:10:05 3.5 C 5.29 g/m*3 3.5 C 0 km/h
Sensor: Nr:Datum:Temp:Abs-Feuchte:Windchill:Wind:
Aussen-T/F 1576 26-02-2011 03:22:05 3.4 C 5.25 g/m*3 3.4 C 0 km/h
1577 26-02-2011 03:34:05 3.4 C 5.25 g/m*3 3.4 C 0 km/h
1578 26-02-2011 03:46:05 3.4 C 5.25 g/m*3 3.4 C 0 km/h
1579 26-02-2011 03:58:05 3.4 C 5.25 g/m*3 3.4 C 0 km/h
1580 26-02-2011 04:10:05 3.3 C 5.22 g/m*3 3.3 C 0 km/h
1581 26-02-2011 04:22:05 3.3 C 5.22 g/m*3 3.3 C 0 km/h
1582 26-02-2011 04:34:05 3.4 C 5.25 g/m*3 3.4 C 0 km/h
1583 26-02-2011 04:46:05 3.5 C 5.29 g/m*3 3.5 C 0 km/h
1584 26-02-2011 04:58:05 3.4 C 5.25 g/m*3 3.4 C 0 km/h
1585 26-02-2011 05:10:05 3.3 C 5.22 g/m*3 3.3 C 0 km/h
1586 26-02-2011 05:22:05 3.4 C 5.25 g/m*3 3.4 C 0 km/h
1587 26-02-2011 05:34:05 3.8 C 5.33 g/m*3 3.8 C 0 km/h
1588 26-02-2011 05:46:06 4.1 C 5.25 g/m*3 4.1 C 0 km/h
1589 26-02-2011 05:58:06 4.1 C 5.06 g/m*3 4.1 C 0 km/h
1590 26-02-2011 06:10:06 4.1 C 4.93 g/m*3 4.1 C 0 km/h
1591 26-02-2011 06:22:06 4 C 4.9 g/m*3 4 C 0 km/h
1592 26-02-2011 06:34:06 3.7 C 4.86 g/m*3 3.7 C 0 km/h
1593 26-02-2011 06:46:06 3.4 C 4.83 g/m*3 3.4 C 0 km/h
1594 26-02-2011 06:58:06 2.9 C 4.84 g/m*3 2.9 C 0 km/h
1595 26-02-2011 07:10:06 2.7 C 4.84 g/m*3 2.7 C 0 km/h
1596 26-02-2011 07:22:06 2.7 C 4.89 g/m*3 2.7 C 0 km/h
1597 26-02-2011 07:34:06 2.6 C 4.92 g/m*3 2.6 C 0 km/h
1598 26-02-2011 07:46:06 2.9 C 5.02 g/m*3 2.9 C 0 km/h
1599 26-02-2011 07:58:06 3.6 C 5.14 g/m*3 3.6 C 0 km/h
1600 26-02-2011 08:10:06 3.8 C 4.96 g/m*3 3.8 C 0 km/h
Sensor: Nr:Datum:Temp:Abs-Feuchte:Windchill:Wind:
Aussen-T/F 1601 26-02-2011 08:22:06 3.8 C 4.89 g/m*3 3.8 C 0 km/h
1602 26-02-2011 08:34:03 3.9 C 4.93 g/m*3 3.9 C 0 km/h
1603 26-02-2011 08:46:02 4 C 4.83 g/m*3 4 C 0 km/h
1604 26-02-2011 08:58:02 4.2 C 4.83 g/m*3 4.2 C 0 km/h
1605 26-02-2011 09:10:02 4.2 C 4.77 g/m*3 4.2 C 0 km/h
1606 26-02-2011 09:22:02 4.2 C 4.7 g/m*3 4.2 C 0 km/h
1607 26-02-2011 09:34:02 4.1 C 4.67 g/m*3 4.1 C 0 km/h
1608 26-02-2011 09:46:02 3.9 C 4.61 g/m*3 3.9 C 0 km/h
1609 26-02-2011 09:58:03 4.1 C 4.61 g/m*3 4.1 C 0 km/h
1610 26-02-2011 10:10:01 4.1 C 4.61 g/m*3 4.1 C 0 km/h
1611 26-02-2011 10:22:02 4.3 C 4.61 g/m*3 4.3 C 0 km/h
1612 26-02-2011 10:34:02 4.7 C 4.6 g/m*3 4.7 C 0 km/h
1613 26-02-2011 10:46:02 5.2 C 4.61 g/m*3 5.2 C 0 km/h
1614 26-02-2011 10:58:02 5.7 C 4.63 g/m*3 5.7 C 0 km/h
1615 26-02-2011 11:10:03 5.6 C 4.45 g/m*3 5.6 C 0 km/h
1616 26-02-2011 11:22:02 5.6 C 4.38 g/m*3 5.6 C 0 km/h
1617 26-02-2011 11:34:03 5.6 C 4.38 g/m*3 5.6 C 0 km/h
1618 26-02-2011 11:46:02 6.5 C 4.65 g/m*3 6.5 C 0 km/h
1619 26-02-2011 11:58:02 6.1 C 4.38 g/m*3 6.1 C 0 km/h
1620 26-02-2011 12:10:02 7.4 C 4.61 g/m*3 7.4 C 0 km/h
1621 26-02-2011 12:22:02 7.8 C 4.57 g/m*3 7.8 C 0 km/h
1622 26-02-2011 12:34:02 8 C 4.38 g/m*3 8 C 0 km/h
1623 26-02-2011 12:46:02 7.7 C 4.46 g/m*3 7.7 C 0 km/h
1624 26-02-2011 12:58:02 7.1 C 4.45 g/m*3 7.1 C 0 km/h
1625 26-02-2011 13:10:02 7.4 C 4.53 g/m*3 7.4 C 0 km/h
Sensor: Nr:Datum:Temp:Abs-Feuchte:Windchill:Wind:
Aussen-T/F 1626 26-02-2011 13:22:02 8.4 C 4.58 g/m*3 8.4 C 0 km/h
1627 26-02-2011 13:34:02 8.6 C 4.38 g/m*3 8.6 C 0 km/h
1628 26-02-2011 13:46:02 8.9 C 4.64 g/m*3 8.9 C 0 km/h
1629 26-02-2011 13:58:02 8.7 C 4.58 g/m*3 8.7 C 0 km/h
1630 26-02-2011 14:10:02 8.6 C 4.55 g/m*3 8.6 C 0 km/h
1631 26-02-2011 14:22:02 8 C 4.63 g/m*3 8 C 0 km/h
1632 26-02-2011 14:34:02 8.9 C 4.73 g/m*3 8.9 C 0 km/h
1633 26-02-2011 14:46:02 9.5 C 4.64 g/m*3 9.5 C 0 km/h
1634 26-02-2011 14:58:02 8.8 C 4.53 g/m*3 8.8 C 0 km/h
1635 26-02-2011 15:10:02 8.7 C 4.58 g/m*3 8.7 C 0 km/h
1636 26-02-2011 15:22:03 8 C 4.63 g/m*3 8 C 0 km/h
1637 26-02-2011 15:34:02 7.7 C 4.7 g/m*3 7.7 C 0 km/h
1638 26-02-2011 15:46:02 7.7 C 4.87 g/m*3 7.7 C 0 km/h
1639 26-02-2011 15:58:02 7.8 C 4.73 g/m*3 7.8 C 0 km/h
1640 26-02-2011 16:10:02 7.7 C 4.7 g/m*3 7.7 C 0 km/h
1641 26-02-2011 16:22:02 7.4 C 4.77 g/m*3 7.4 C 0 km/h
1642 26-02-2011 16:34:01 7 C 4.8 g/m*3 7 C 0 km/h
1643 26-02-2011 16:46:02 6.9 C 4.93 g/m*3 6.9 C 0 km/h
1644 26-02-2011 16:58:03 6.7 C 4.94 g/m*3 6.7 C 0 km/h
1645 26-02-2011 17:10:01 6.7 C 5.01 g/m*3 6.7 C 0 km/h
1646 26-02-2011 17:22:01 6.6 C 5.06 g/m*3 6.6 C 0 km/h
1647 26-02-2011 17:34:02 6.4 C 5.07 g/m*3 6.4 C 0 km/h
1648 26-02-2011 17:46:02 6.3 C 5.11 g/m*3 6.3 C 0 km/h
1649 26-02-2011 17:58:02 6 C 5.15 g/m*3 6 C 0 km/h
1650 26-02-2011 18:10:02 5.8 C 5.3 g/m*3 5.8 C 0 km/h
Sensor: Nr:Datum:Temp:Abs-Feuchte:Windchill:Wind:
Aussen-T/F 1651 26-02-2011 18:22:02 5.8 C 5.37 g/m*3 5.8 C 0 km/h
1652 26-02-2011 18:34:02 5.6 C 5.37 g/m*3 5.6 C 0 km/h
1653 26-02-2011 18:46:02 5.4 C 5.37 g/m*3 5.4 C 0 km/h
1654 26-02-2011 18:58:02 5.2 C 5.51 g/m*3 5.2 C 0 km/h
1655 26-02-2011 19:10:02 5.1 C 5.68 g/m*3 5.1 C 0 km/h
1656 26-02-2011 19:22:02 5 C 5.71 g/m*3 5 C 0 km/h
1657 26-02-2011 19:34:02 5 C 5.71 g/m*3 5 C 0 km/h
1658 26-02-2011 19:46:02 4.8 C 5.77 g/m*3 4.8 C 0 km/h
1659 26-02-2011 19:58:02 4.9 C 5.81 g/m*3 4.9 C 0 km/h
1660 26-02-2011 20:10:02 4.8 C 5.77 g/m*3 4.8 C 0 km/h
1661 26-02-2011 20:22:02 4.9 C 5.81 g/m*3 4.9 C 0 km/h
1662 26-02-2011 20:34:02 4.7 C 5.8 g/m*3 4.7 C 0 km/h
1663 26-02-2011 20:46:02 4.7 C 5.8 g/m*3 4.7 C 0 km/h
1664 26-02-2011 20:58:02 4.6 C 5.76 g/m*3 4.6 C 0 km/h
1665 26-02-2011 21:10:02 4.6 C 5.82 g/m*3 4.6 C 0 km/h
1666 26-02-2011 21:22:02 4.6 C 5.82 g/m*3 4.6 C 0 km/h
1667 26-02-2011 21:34:01 4.6 C 5.82 g/m*3 4.6 C 0 km/h
1668 26-02-2011 21:47:02 4.6 C 5.82 g/m*3 4.6 C 0 km/h
1669 26-02-2011 21:59:02 4.6 C 5.82 g/m*3 4.6 C 0 km/h
1670 26-02-2011 22:11:02 4.7 C 5.86 g/m*3 4.7 C 0 km/h
1671 26-02-2011 22:23:02 4.6 C 5.89 g/m*3 4.6 C 0 km/h
1672 26-02-2011 22:35:02 4.4 C 5.81 g/m*3 4.4 C 0 km/h
1673 26-02-2011 22:47:02 4.4 C 5.81 g/m*3 4.4 C 0 km/h
1674 26-02-2011 22:59:02 4.3 C 5.77 g/m*3 4.3 C 0 km/h
1675 26-02-2011 23:11:02 4.3 C 5.77 g/m*3 4.3 C 0 km/h
Sensor: Nr:Datum:Temp:Abs-Feuchte:Windchill:Wind:
Aussen-T/F 1676 26-02-2011 23:23:02 4.4 C 5.81 g/m*3 4.4 C 0 km/h
1677 26-02-2011 23:35:02 4.7 C 6 g/m*3 4.7 C 0 km/h
1678 26-02-2011 23:47:02 5 C 6.05 g/m*3 5 C 0 km/h
1679 26-02-2011 23:59:03 5.1 C 6.09 g/m*3 5.1 C 0 km/h

Legende:
   Min
   Max


Maximal/Minimal-Werte vom 13.02.2011 - 26.02.2011

Sensor Min Max Avg
Temp
(Aussen-T/F)
-9.5 °C
23-02-2011  06:31:05
11 °C
14-02-2011  13:58:01
2.12 °C
Abs-Feuchte
(Aussen-T/F)
1.13 g/m*3
23-02-2011  17:07:02
6.49 g/m*3
15-02-2011  02:11:02
4.15 g/m*3
Windchill
(Aussen-T/F)
-9.5 C
23-02-2011  06:31:05
11 C
14-02-2011  13:58:01
2.12 C

Die Daten stammen von einer Davis Vantage Pro 2 Wetter-Station und werden unter Linux mit der Software wview2wettercgi und aufbereitet. Alle Angaben erfolgen ohne Gewähr für ihre Vollständigkeit oder Richtigkeit.
Kontakt: Rainer Krienke krienke@uni-koblenz.de . Meine Webseiten an der Uni Koblenz oder privat.
Version: $Revision: 0.78 $